<?xml version="1.0" encoding="UTF-8" standalone="no" ?>
<gpx xmlns="http://www.topografix.com/GPX/1/1" xmlns:xsi="http://www.w3.org/2001/XMLSchema-instance" xsi:schemaLocation="http://www.topografix.com/GPX/1/1 http://www.topografix.com/GPX/1/1/gpx.xsd" version="1.1" creator="VisuGPX - https://www.visugpx.com">
  <metadata>
    <name>Baume rousse depuis Chatillon (Diois)</name>
    <desc><![CDATA[Au départ de [b]Chatillon en Diois[/b]]]></desc>
  </metadata>
  <trk>
    <name><![CDATA[2022-08-28 baume rousse chatillon]]></name>
    <desc><![CDATA[<p>Type: Indéfini<br/>Heure de départ: 10:18 28 août 2022<br/>Heure d'arrivée: 16:56 28 août 2022<br/>Distance: 13,1 km (06:38)<br/>Temps déplacement: 05:04<br/>Vitesse moyenne: 1,98 km/h<br/>Vitesse moyenne mouv.: 2,59 km/h<br/>Vitesse Max.: 12,52 km/h<br/>Altitude minimale: 569 m<br/>Altitude maximale: 1782 m<br/>Vitesse de montée: 427,7 m/h<br/>Vitesse de descente: 584,3 m/h<br/>Gain d'altitude: 1241 m<br/>Perte d'altitude: 1239 m<br/>Temps de montée: 02:54<br/>Temps de descente: 02:07<br/></p><hr align="center" width="480" style="height: 2px; width: 517px"/>]]></desc>
    <trkseg>
      <trkpt lat="44.69302" lon="5.48069">
        <ele>569.19</ele>
        <time>2022-08-28T08:18:12.999Z</time>
      </trkpt>
      <trkpt lat="44.69315" lon="5.48088">
        <ele>569.2</ele>
        <time>2022-08-28T08:18:35.999Z</time>
      </trkpt>
      <trkpt lat="44.69322" lon="5.48111">
        <ele>569.48</ele>
        <time>2022-08-28T08:18:49.141Z</time>
      </trkpt>
      <trkpt lat="44.69333" lon="5.48091">
        <ele>570.76</ele>
        <time>2022-08-28T08:19:32.357Z</time>
      </trkpt>
      <trkpt lat="44.69348" lon="5.48105">
        <ele>572.59</ele>
        <time>2022-08-28T08:20:01.526Z</time>
      </trkpt>
      <trkpt lat="44.6936" lon="5.48125">
        <ele>572.58</ele>
        <time>2022-08-28T08:20:15.425Z</time>
      </trkpt>
      <trkpt lat="44.69375" lon="5.48141">
        <ele>572.58</ele>
        <time>2022-08-28T08:20:37.661Z</time>
      </trkpt>
      <trkpt lat="44.69388" lon="5.48158">
        <ele>572.58</ele>
        <time>2022-08-28T08:20:56.520Z</time>
      </trkpt>
      <trkpt lat="44.69402" lon="5.48176">
        <ele>572.58</ele>
        <time>2022-08-28T08:21:13.544Z</time>
      </trkpt>
      <trkpt lat="44.69417" lon="5.48191">
        <ele>574.12</ele>
        <time>2022-08-28T08:21:30.220Z</time>
      </trkpt>
      <trkpt lat="44.69432" lon="5.48206">
        <ele>574.52</ele>
        <time>2022-08-28T08:21:44.438Z</time>
      </trkpt>
      <trkpt lat="44.69443" lon="5.48226">
        <ele>575.66</ele>
        <time>2022-08-28T08:21:59.619Z</time>
      </trkpt>
      <trkpt lat="44.69452" lon="5.48248">
        <ele>576.26</ele>
        <time>2022-08-28T08:22:14.557Z</time>
      </trkpt>
      <trkpt lat="44.69456" lon="5.48274">
        <ele>576.6</ele>
        <time>2022-08-28T08:22:32.628Z</time>
      </trkpt>
      <trkpt lat="44.69464" lon="5.48298">
        <ele>577.52</ele>
        <time>2022-08-28T08:22:47.988Z</time>
      </trkpt>
      <trkpt lat="44.69472" lon="5.48321">
        <ele>579.02</ele>
        <time>2022-08-28T08:23:09.000Z</time>
      </trkpt>
      <trkpt lat="44.69476" lon="5.48346">
        <ele>579.72</ele>
        <time>2022-08-28T08:23:26.137Z</time>
      </trkpt>
      <trkpt lat="44.69482" lon="5.4837">
        <ele>579.38</ele>
        <time>2022-08-28T08:23:52.180Z</time>
      </trkpt>
      <trkpt lat="44.69489" lon="5.48394">
        <ele>580.09</ele>
        <time>2022-08-28T08:24:10.662Z</time>
      </trkpt>
      <trkpt lat="44.6949" lon="5.48419">
        <ele>580.17</ele>
        <time>2022-08-28T08:24:26.324Z</time>
      </trkpt>
      <trkpt lat="44.69494" lon="5.48445">
        <ele>578.8</ele>
        <time>2022-08-28T08:24:41.338Z</time>
      </trkpt>
      <trkpt lat="44.69505" lon="5.48467">
        <ele>578.01</ele>
        <time>2022-08-28T08:25:00.297Z</time>
      </trkpt>
      <trkpt lat="44.69516" lon="5.48489">
        <ele>577.82</ele>
        <time>2022-08-28T08:25:37.000Z</time>
      </trkpt>
      <trkpt lat="44.6953" lon="5.48507">
        <ele>580.7</ele>
        <time>2022-08-28T08:25:58.464Z</time>
      </trkpt>
      <trkpt lat="44.69548" lon="5.48498">
        <ele>583.64</ele>
        <time>2022-08-28T08:26:17.464Z</time>
      </trkpt>
      <trkpt lat="44.69547" lon="5.48472">
        <ele>588.4</ele>
        <time>2022-08-28T08:26:58.158Z</time>
      </trkpt>
      <trkpt lat="44.69565" lon="5.48466">
        <ele>591.83</ele>
        <time>2022-08-28T08:27:20.178Z</time>
      </trkpt>
      <trkpt lat="44.69583" lon="5.48461">
        <ele>594.25</ele>
        <time>2022-08-28T08:27:45.677Z</time>
      </trkpt>
      <trkpt lat="44.69601" lon="5.48458">
        <ele>590.88</ele>
        <time>2022-08-28T08:28:05.363Z</time>
      </trkpt>
      <trkpt lat="44.69619" lon="5.48453">
        <ele>592.09</ele>
        <time>2022-08-28T08:28:24.581Z</time>
      </trkpt>
      <trkpt lat="44.69627" lon="5.4843">
        <ele>594.03</ele>
        <time>2022-08-28T08:28:41.000Z</time>
      </trkpt>
      <trkpt lat="44.69638" lon="5.48411">
        <ele>596.89</ele>
        <time>2022-08-28T08:29:13.158Z</time>
      </trkpt>
      <trkpt lat="44.69655" lon="5.48422">
        <ele>598.58</ele>
        <time>2022-08-28T08:29:38.326Z</time>
      </trkpt>
      <trkpt lat="44.69673" lon="5.48416">
        <ele>600.57</ele>
        <time>2022-08-28T08:30:00.323Z</time>
      </trkpt>
      <trkpt lat="44.69691" lon="5.48415">
        <ele>601.39</ele>
        <time>2022-08-28T08:30:18.466Z</time>
      </trkpt>
      <trkpt lat="44.69708" lon="5.48422">
        <ele>603.45</ele>
        <time>2022-08-28T08:30:38.000Z</time>
      </trkpt>
      <trkpt lat="44.6972" lon="5.48441">
        <ele>605.74</ele>
        <time>2022-08-28T08:30:54.523Z</time>
      </trkpt>
      <trkpt lat="44.69733" lon="5.48458">
        <ele>610.71</ele>
        <time>2022-08-28T08:31:29.018Z</time>
      </trkpt>
      <trkpt lat="44.69749" lon="5.48473">
        <ele>616.24</ele>
        <time>2022-08-28T08:32:08.723Z</time>
      </trkpt>
      <trkpt lat="44.69763" lon="5.4849">
        <ele>623.61</ele>
        <time>2022-08-28T08:32:59.686Z</time>
      </trkpt>
      <trkpt lat="44.69776" lon="5.48506">
        <ele>632.19</ele>
        <time>2022-08-28T08:34:06.000Z</time>
      </trkpt>
      <trkpt lat="44.69771" lon="5.48531">
        <ele>634.02</ele>
        <time>2022-08-28T08:34:26.295Z</time>
      </trkpt>
      <trkpt lat="44.69781" lon="5.48509">
        <ele>637.81</ele>
        <time>2022-08-28T08:35:01.644Z</time>
      </trkpt>
      <trkpt lat="44.69796" lon="5.48494">
        <ele>641.26</ele>
        <time>2022-08-28T08:35:35.000Z</time>
      </trkpt>
      <trkpt lat="44.69805" lon="5.48471">
        <ele>643.86</ele>
        <time>2022-08-28T08:35:54.741Z</time>
      </trkpt>
      <trkpt lat="44.69809" lon="5.48446">
        <ele>646.58</ele>
        <time>2022-08-28T08:36:17.283Z</time>
      </trkpt>
      <trkpt lat="44.69822" lon="5.48427">
        <ele>650.28</ele>
        <time>2022-08-28T08:36:46.062Z</time>
      </trkpt>
      <trkpt lat="44.69838" lon="5.48416">
        <ele>653.19</ele>
        <time>2022-08-28T08:37:11.401Z</time>
      </trkpt>
      <trkpt lat="44.69834" lon="5.48441">
        <ele>656.15</ele>
        <time>2022-08-28T08:37:41.638Z</time>
      </trkpt>
      <trkpt lat="44.6983" lon="5.48466">
        <ele>658.11</ele>
        <time>2022-08-28T08:38:01.317Z</time>
      </trkpt>
      <trkpt lat="44.69834" lon="5.48492">
        <ele>661.14</ele>
        <time>2022-08-28T08:38:25.663Z</time>
      </trkpt>
      <trkpt lat="44.69844" lon="5.4847">
        <ele>664.08</ele>
        <time>2022-08-28T08:38:53.585Z</time>
      </trkpt>
      <trkpt lat="44.6986" lon="5.48459">
        <ele>666.13</ele>
        <time>2022-08-28T08:39:15.502Z</time>
      </trkpt>
      <trkpt lat="44.69877" lon="5.48451">
        <ele>668.36</ele>
        <time>2022-08-28T08:39:36.341Z</time>
      </trkpt>
      <trkpt lat="44.69894" lon="5.48441">
        <ele>670.55</ele>
        <time>2022-08-28T08:39:59.000Z</time>
      </trkpt>
      <trkpt lat="44.69912" lon="5.48436">
        <ele>673</ele>
        <time>2022-08-28T08:40:23.000Z</time>
      </trkpt>
      <trkpt lat="44.6993" lon="5.48438">
        <ele>675.63</ele>
        <time>2022-08-28T08:40:44.621Z</time>
      </trkpt>
      <trkpt lat="44.69934" lon="5.48413">
        <ele>679.96</ele>
        <time>2022-08-28T08:41:38.999Z</time>
      </trkpt>
      <trkpt lat="44.69922" lon="5.48394">
        <ele>682.2</ele>
        <time>2022-08-28T08:41:59.244Z</time>
      </trkpt>
      <trkpt lat="44.69909" lon="5.48375">
        <ele>684.33</ele>
        <time>2022-08-28T08:42:19.500Z</time>
      </trkpt>
      <trkpt lat="44.69898" lon="5.48355">
        <ele>687.25</ele>
        <time>2022-08-28T08:42:43.999Z</time>
      </trkpt>
      <trkpt lat="44.69887" lon="5.48334">
        <ele>689.67</ele>
        <time>2022-08-28T08:43:04.569Z</time>
      </trkpt>
      <trkpt lat="44.69905" lon="5.48329">
        <ele>693.81</ele>
        <time>2022-08-28T08:43:41.999Z</time>
      </trkpt>
      <trkpt lat="44.69919" lon="5.48344">
        <ele>696.24</ele>
        <time>2022-08-28T08:44:05.403Z</time>
      </trkpt>
      <trkpt lat="44.69937" lon="5.48336">
        <ele>698.58</ele>
        <time>2022-08-28T08:44:27.181Z</time>
      </trkpt>
      <trkpt lat="44.69955" lon="5.48334">
        <ele>701.61</ele>
        <time>2022-08-28T08:44:51.999Z</time>
      </trkpt>
      <trkpt lat="44.69954" lon="5.48308">
        <ele>709.37</ele>
        <time>2022-08-28T08:46:02.709Z</time>
      </trkpt>
      <trkpt lat="44.69971" lon="5.48298">
        <ele>710.95</ele>
        <time>2022-08-28T08:46:22.999Z</time>
      </trkpt>
      <trkpt lat="44.69989" lon="5.483">
        <ele>713.57</ele>
        <time>2022-08-28T08:46:40.062Z</time>
      </trkpt>
      <trkpt lat="44.70007" lon="5.48299">
        <ele>715.61</ele>
        <time>2022-08-28T08:46:59.999Z</time>
      </trkpt>
      <trkpt lat="44.70025" lon="5.48304">
        <ele>717.65</ele>
        <time>2022-08-28T08:47:17.390Z</time>
      </trkpt>
      <trkpt lat="44.70043" lon="5.483">
        <ele>720.64</ele>
        <time>2022-08-28T08:47:44.999Z</time>
      </trkpt>
      <trkpt lat="44.70059" lon="5.48316">
        <ele>721.72</ele>
        <time>2022-08-28T08:48:01.698Z</time>
      </trkpt>
      <trkpt lat="44.70069" lon="5.48337">
        <ele>722.54</ele>
        <time>2022-08-28T08:48:14.520Z</time>
      </trkpt>
      <trkpt lat="44.70081" lon="5.48357">
        <ele>723.69</ele>
        <time>2022-08-28T08:48:32.537Z</time>
      </trkpt>
      <trkpt lat="44.70099" lon="5.48364">
        <ele>727.43</ele>
        <time>2022-08-28T08:49:05.686Z</time>
      </trkpt>
      <trkpt lat="44.70116" lon="5.48371">
        <ele>729.38</ele>
        <time>2022-08-28T08:49:23.404Z</time>
      </trkpt>
      <trkpt lat="44.70134" lon="5.48374">
        <ele>731.78</ele>
        <time>2022-08-28T08:49:41.999Z</time>
      </trkpt>
      <trkpt lat="44.70123" lon="5.48394">
        <ele>736.11</ele>
        <time>2022-08-28T08:50:29.324Z</time>
      </trkpt>
      <trkpt lat="44.70113" lon="5.48415">
        <ele>738.71</ele>
        <time>2022-08-28T08:50:49.039Z</time>
      </trkpt>
      <trkpt lat="44.7013" lon="5.48404">
        <ele>741.66</ele>
        <time>2022-08-28T08:51:12.563Z</time>
      </trkpt>
      <trkpt lat="44.70118" lon="5.48424">
        <ele>746.97</ele>
        <time>2022-08-28T08:51:57.516Z</time>
      </trkpt>
      <trkpt lat="44.70112" lon="5.48448">
        <ele>749.37</ele>
        <time>2022-08-28T08:52:21.516Z</time>
      </trkpt>
      <trkpt lat="44.70106" lon="5.48473">
        <ele>751.18</ele>
        <time>2022-08-28T08:52:40.527Z</time>
      </trkpt>
      <trkpt lat="44.70124" lon="5.48469">
        <ele>757.34</ele>
        <time>2022-08-28T08:53:23.222Z</time>
      </trkpt>
      <trkpt lat="44.70139" lon="5.48455">
        <ele>759.45</ele>
        <time>2022-08-28T08:53:45.199Z</time>
      </trkpt>
      <trkpt lat="44.70158" lon="5.48451">
        <ele>761.43</ele>
        <time>2022-08-28T08:54:07.999Z</time>
      </trkpt>
      <trkpt lat="44.70176" lon="5.48451">
        <ele>764.97</ele>
        <time>2022-08-28T08:54:33.999Z</time>
      </trkpt>
      <trkpt lat="44.70195" lon="5.48456">
        <ele>766.96</ele>
        <time>2022-08-28T08:54:52.579Z</time>
      </trkpt>
      <trkpt lat="44.70214" lon="5.48458">
        <ele>769</ele>
        <time>2022-08-28T08:55:11.477Z</time>
      </trkpt>
      <trkpt lat="44.70232" lon="5.48459">
        <ele>771.45</ele>
        <time>2022-08-28T08:55:30.665Z</time>
      </trkpt>
      <trkpt lat="44.7025" lon="5.48451">
        <ele>773.65</ele>
        <time>2022-08-28T08:55:53.465Z</time>
      </trkpt>
      <trkpt lat="44.70267" lon="5.48443">
        <ele>775.39</ele>
        <time>2022-08-28T08:56:12.402Z</time>
      </trkpt>
      <trkpt lat="44.70284" lon="5.48433">
        <ele>777.41</ele>
        <time>2022-08-28T08:56:30.617Z</time>
      </trkpt>
      <trkpt lat="44.70302" lon="5.4843">
        <ele>779.77</ele>
        <time>2022-08-28T08:56:52.405Z</time>
      </trkpt>
      <trkpt lat="44.7032" lon="5.48422">
        <ele>782.43</ele>
        <time>2022-08-28T08:57:11.502Z</time>
      </trkpt>
      <trkpt lat="44.70337" lon="5.48429">
        <ele>794.31</ele>
        <time>2022-08-28T08:58:28.706Z</time>
      </trkpt>
      <trkpt lat="44.70348" lon="5.48449">
        <ele>800.36</ele>
        <time>2022-08-28T08:59:04.280Z</time>
      </trkpt>
      <trkpt lat="44.7036" lon="5.48468">
        <ele>805.8</ele>
        <time>2022-08-28T08:59:36.999Z</time>
      </trkpt>
      <trkpt lat="44.70373" lon="5.48486">
        <ele>811.25</ele>
        <time>2022-08-28T09:00:08.000Z</time>
      </trkpt>
      <trkpt lat="44.70384" lon="5.48506">
        <ele>817.04</ele>
        <time>2022-08-28T09:01:14.000Z</time>
      </trkpt>
      <trkpt lat="44.70397" lon="5.48523">
        <ele>820.81</ele>
        <time>2022-08-28T09:01:38.568Z</time>
      </trkpt>
      <trkpt lat="44.70413" lon="5.48537">
        <ele>826.34</ele>
        <time>2022-08-28T09:03:25.168Z</time>
      </trkpt>
      <trkpt lat="44.70419" lon="5.48561">
        <ele>834.01</ele>
        <time>2022-08-28T09:04:11.163Z</time>
      </trkpt>
      <trkpt lat="44.70433" lon="5.48577">
        <ele>839.56</ele>
        <time>2022-08-28T09:04:45.346Z</time>
      </trkpt>
      <trkpt lat="44.70446" lon="5.48595">
        <ele>842.53</ele>
        <time>2022-08-28T09:05:08.301Z</time>
      </trkpt>
      <trkpt lat="44.70454" lon="5.48617">
        <ele>849.14</ele>
        <time>2022-08-28T09:05:44.164Z</time>
      </trkpt>
      <trkpt lat="44.70469" lon="5.48634">
        <ele>853.33</ele>
        <time>2022-08-28T09:06:15.024Z</time>
      </trkpt>
      <trkpt lat="44.70486" lon="5.48641">
        <ele>856.14</ele>
        <time>2022-08-28T09:06:35.000Z</time>
      </trkpt>
      <trkpt lat="44.70504" lon="5.48649">
        <ele>859.48</ele>
        <time>2022-08-28T09:06:56.000Z</time>
      </trkpt>
      <trkpt lat="44.7052" lon="5.4866">
        <ele>860.31</ele>
        <time>2022-08-28T09:07:12.558Z</time>
      </trkpt>
      <trkpt lat="44.70534" lon="5.48677">
        <ele>862.69</ele>
        <time>2022-08-28T09:07:30.567Z</time>
      </trkpt>
      <trkpt lat="44.70553" lon="5.48677">
        <ele>864.99</ele>
        <time>2022-08-28T09:07:48.618Z</time>
      </trkpt>
      <trkpt lat="44.70569" lon="5.48689">
        <ele>870.52</ele>
        <time>2022-08-28T09:08:21.609Z</time>
      </trkpt>
      <trkpt lat="44.70581" lon="5.48708">
        <ele>875.89</ele>
        <time>2022-08-28T09:08:52.247Z</time>
      </trkpt>
      <trkpt lat="44.70594" lon="5.48727">
        <ele>882.99</ele>
        <time>2022-08-28T09:09:33.000Z</time>
      </trkpt>
      <trkpt lat="44.70609" lon="5.4874">
        <ele>887.83</ele>
        <time>2022-08-28T09:10:01.698Z</time>
      </trkpt>
      <trkpt lat="44.70626" lon="5.4873">
        <ele>892.23</ele>
        <time>2022-08-28T09:10:35.343Z</time>
      </trkpt>
      <trkpt lat="44.70643" lon="5.48719">
        <ele>894.04</ele>
        <time>2022-08-28T09:10:55.302Z</time>
      </trkpt>
      <trkpt lat="44.70661" lon="5.48719">
        <ele>895.57</ele>
        <time>2022-08-28T09:11:14.220Z</time>
      </trkpt>
      <trkpt lat="44.70679" lon="5.48723">
        <ele>897.08</ele>
        <time>2022-08-28T09:11:33.199Z</time>
      </trkpt>
      <trkpt lat="44.70697" lon="5.48733">
        <ele>898.66</ele>
        <time>2022-08-28T09:11:56.000Z</time>
      </trkpt>
      <trkpt lat="44.70715" lon="5.48735">
        <ele>903.51</ele>
        <time>2022-08-28T09:12:18.988Z</time>
      </trkpt>
      <trkpt lat="44.70731" lon="5.48749">
        <ele>912.76</ele>
        <time>2022-08-28T09:13:23.483Z</time>
      </trkpt>
      <trkpt lat="44.70749" lon="5.48755">
        <ele>917.5</ele>
        <time>2022-08-28T09:14:03.000Z</time>
      </trkpt>
      <trkpt lat="44.7076" lon="5.48776">
        <ele>924.89</ele>
        <time>2022-08-28T09:14:51.000Z</time>
      </trkpt>
      <trkpt lat="44.70776" lon="5.48787">
        <ele>932.09</ele>
        <time>2022-08-28T09:15:41.282Z</time>
      </trkpt>
      <trkpt lat="44.70792" lon="5.48799">
        <ele>936.85</ele>
        <time>2022-08-28T09:16:26.573Z</time>
      </trkpt>
      <trkpt lat="44.70807" lon="5.48813">
        <ele>941.31</ele>
        <time>2022-08-28T09:16:55.983Z</time>
      </trkpt>
      <trkpt lat="44.70824" lon="5.48804">
        <ele>945.42</ele>
        <time>2022-08-28T09:18:25.264Z</time>
      </trkpt>
      <trkpt lat="44.70831" lon="5.4878">
        <ele>948.62</ele>
        <time>2022-08-28T09:18:47.523Z</time>
      </trkpt>
      <trkpt lat="44.70845" lon="5.48765">
        <ele>951.98</ele>
        <time>2022-08-28T09:19:19.461Z</time>
      </trkpt>
      <trkpt lat="44.70851" lon="5.4874">
        <ele>955.52</ele>
        <time>2022-08-28T09:19:49.545Z</time>
      </trkpt>
      <trkpt lat="44.70848" lon="5.48715">
        <ele>955.95</ele>
        <time>2022-08-28T09:20:06.221Z</time>
      </trkpt>
      <trkpt lat="44.70854" lon="5.4869">
        <ele>954.8</ele>
        <time>2022-08-28T09:20:22.461Z</time>
      </trkpt>
      <trkpt lat="44.70864" lon="5.48668">
        <ele>957.24</ele>
        <time>2022-08-28T09:20:44.397Z</time>
      </trkpt>
      <trkpt lat="44.70855" lon="5.48646">
        <ele>960.04</ele>
        <time>2022-08-28T09:21:07.185Z</time>
      </trkpt>
      <trkpt lat="44.70845" lon="5.48625">
        <ele>960.29</ele>
        <time>2022-08-28T09:21:22.485Z</time>
      </trkpt>
      <trkpt lat="44.70837" lon="5.48602">
        <ele>962.57</ele>
        <time>2022-08-28T09:21:41.342Z</time>
      </trkpt>
      <trkpt lat="44.7083" lon="5.48577">
        <ele>964.92</ele>
        <time>2022-08-28T09:21:59.579Z</time>
      </trkpt>
      <trkpt lat="44.70821" lon="5.48554">
        <ele>967.57</ele>
        <time>2022-08-28T09:22:21.465Z</time>
      </trkpt>
      <trkpt lat="44.70817" lon="5.48529">
        <ele>971.02</ele>
        <time>2022-08-28T09:22:48.204Z</time>
      </trkpt>
      <trkpt lat="44.70822" lon="5.48504">
        <ele>980.43</ele>
        <time>2022-08-28T09:23:41.557Z</time>
      </trkpt>
      <trkpt lat="44.70821" lon="5.48479">
        <ele>985.85</ele>
        <time>2022-08-28T09:24:18.671Z</time>
      </trkpt>
      <trkpt lat="44.7082" lon="5.48453">
        <ele>991.25</ele>
        <time>2022-08-28T09:25:29.038Z</time>
      </trkpt>
      <trkpt lat="44.70831" lon="5.48432">
        <ele>995.41</ele>
        <time>2022-08-28T09:25:53.308Z</time>
      </trkpt>
      <trkpt lat="44.70846" lon="5.48445">
        <ele>1006.22</ele>
        <time>2022-08-28T09:27:00.423Z</time>
      </trkpt>
      <trkpt lat="44.70854" lon="5.48469">
        <ele>1009.29</ele>
        <time>2022-08-28T09:27:21.300Z</time>
      </trkpt>
      <trkpt lat="44.70862" lon="5.48491">
        <ele>1011.12</ele>
        <time>2022-08-28T09:27:46.244Z</time>
      </trkpt>
      <trkpt lat="44.70877" lon="5.48507">
        <ele>1016.94</ele>
        <time>2022-08-28T09:28:19.245Z</time>
      </trkpt>
      <trkpt lat="44.70892" lon="5.48521">
        <ele>1020.46</ele>
        <time>2022-08-28T09:28:44.999Z</time>
      </trkpt>
      <trkpt lat="44.70904" lon="5.48542">
        <ele>1024.45</ele>
        <time>2022-08-28T09:31:39.521Z</time>
      </trkpt>
      <trkpt lat="44.70921" lon="5.48549">
        <ele>1026.98</ele>
        <time>2022-08-28T09:32:01.323Z</time>
      </trkpt>
      <trkpt lat="44.70934" lon="5.48568">
        <ele>1030.28</ele>
        <time>2022-08-28T09:32:24.620Z</time>
      </trkpt>
      <trkpt lat="44.70948" lon="5.48584">
        <ele>1034.33</ele>
        <time>2022-08-28T09:32:50.522Z</time>
      </trkpt>
      <trkpt lat="44.7096" lon="5.48605">
        <ele>1038.45</ele>
        <time>2022-08-28T09:33:18.640Z</time>
      </trkpt>
      <trkpt lat="44.70973" lon="5.48622">
        <ele>1042.38</ele>
        <time>2022-08-28T09:33:44.999Z</time>
      </trkpt>
      <trkpt lat="44.70984" lon="5.48601">
        <ele>1052.08</ele>
        <time>2022-08-28T09:34:57.321Z</time>
      </trkpt>
      <trkpt lat="44.70981" lon="5.48577">
        <ele>1056.82</ele>
        <time>2022-08-28T09:35:28.691Z</time>
      </trkpt>
      <trkpt lat="44.70984" lon="5.48551">
        <ele>1060.76</ele>
        <time>2022-08-28T09:35:53.999Z</time>
      </trkpt>
      <trkpt lat="44.70982" lon="5.48526">
        <ele>1064.2</ele>
        <time>2022-08-28T09:36:17.600Z</time>
      </trkpt>
      <trkpt lat="44.70982" lon="5.485">
        <ele>1067.8</ele>
        <time>2022-08-28T09:36:46.076Z</time>
      </trkpt>
      <trkpt lat="44.70999" lon="5.4849">
        <ele>1076.17</ele>
        <time>2022-08-28T09:37:44.000Z</time>
      </trkpt>
      <trkpt lat="44.71014" lon="5.48503">
        <ele>1079.8</ele>
        <time>2022-08-28T09:38:08.546Z</time>
      </trkpt>
      <trkpt lat="44.71028" lon="5.48521">
        <ele>1082.81</ele>
        <time>2022-08-28T09:38:31.000Z</time>
      </trkpt>
      <trkpt lat="44.71043" lon="5.48534">
        <ele>1088.04</ele>
        <time>2022-08-28T09:39:04.497Z</time>
      </trkpt>
      <trkpt lat="44.71057" lon="5.4855">
        <ele>1092.89</ele>
        <time>2022-08-28T09:39:35.436Z</time>
      </trkpt>
      <trkpt lat="44.71072" lon="5.48566">
        <ele>1096.34</ele>
        <time>2022-08-28T09:40:05.279Z</time>
      </trkpt>
      <trkpt lat="44.71086" lon="5.48583">
        <ele>1101.79</ele>
        <time>2022-08-28T09:41:25.157Z</time>
      </trkpt>
      <trkpt lat="44.7109" lon="5.48608">
        <ele>1106.2</ele>
        <time>2022-08-28T09:41:55.169Z</time>
      </trkpt>
      <trkpt lat="44.711" lon="5.48629">
        <ele>1109.72</ele>
        <time>2022-08-28T09:42:24.000Z</time>
      </trkpt>
      <trkpt lat="44.71114" lon="5.48645">
        <ele>1112.04</ele>
        <time>2022-08-28T09:42:43.220Z</time>
      </trkpt>
      <trkpt lat="44.71128" lon="5.48663">
        <ele>1116.1</ele>
        <time>2022-08-28T09:43:06.198Z</time>
      </trkpt>
      <trkpt lat="44.7114" lon="5.48683">
        <ele>1119.12</ele>
        <time>2022-08-28T09:43:33.164Z</time>
      </trkpt>
      <trkpt lat="44.71156" lon="5.48671">
        <ele>1126.54</ele>
        <time>2022-08-28T09:44:19.000Z</time>
      </trkpt>
      <trkpt lat="44.71172" lon="5.48683">
        <ele>1128.81</ele>
        <time>2022-08-28T09:44:35.465Z</time>
      </trkpt>
      <trkpt lat="44.71185" lon="5.48701">
        <ele>1128.63</ele>
        <time>2022-08-28T09:44:54.000Z</time>
      </trkpt>
      <trkpt lat="44.71196" lon="5.48722">
        <ele>1126.77</ele>
        <time>2022-08-28T09:45:09.283Z</time>
      </trkpt>
      <trkpt lat="44.71207" lon="5.48742">
        <ele>1125.75</ele>
        <time>2022-08-28T09:45:27.000Z</time>
      </trkpt>
      <trkpt lat="44.71223" lon="5.48756">
        <ele>1126.45</ele>
        <time>2022-08-28T09:45:43.264Z</time>
      </trkpt>
      <trkpt lat="44.71241" lon="5.48766">
        <ele>1129.75</ele>
        <time>2022-08-28T09:46:04.502Z</time>
      </trkpt>
      <trkpt lat="44.71258" lon="5.48773">
        <ele>1133.14</ele>
        <time>2022-08-28T09:46:22.619Z</time>
      </trkpt>
      <trkpt lat="44.71277" lon="5.48778">
        <ele>1135.07</ele>
        <time>2022-08-28T09:46:41.162Z</time>
      </trkpt>
      <trkpt lat="44.71294" lon="5.48773">
        <ele>1138.33</ele>
        <time>2022-08-28T09:47:00.441Z</time>
      </trkpt>
      <trkpt lat="44.71313" lon="5.48773">
        <ele>1140.39</ele>
        <time>2022-08-28T09:47:17.286Z</time>
      </trkpt>
      <trkpt lat="44.71331" lon="5.48772">
        <ele>1142.43</ele>
        <time>2022-08-28T09:47:42.000Z</time>
      </trkpt>
      <trkpt lat="44.71349" lon="5.48775">
        <ele>1146.84</ele>
        <time>2022-08-28T09:48:10.622Z</time>
      </trkpt>
      <trkpt lat="44.71368" lon="5.48775">
        <ele>1150.99</ele>
        <time>2022-08-28T09:48:38.696Z</time>
      </trkpt>
      <trkpt lat="44.71386" lon="5.48778">
        <ele>1159.36</ele>
        <time>2022-08-28T09:49:29.000Z</time>
      </trkpt>
      <trkpt lat="44.71405" lon="5.48782">
        <ele>1163.63</ele>
        <time>2022-08-28T09:49:55.659Z</time>
      </trkpt>
      <trkpt lat="44.71422" lon="5.48777">
        <ele>1166.5</ele>
        <time>2022-08-28T09:50:30.000Z</time>
      </trkpt>
      <trkpt lat="44.71439" lon="5.48765">
        <ele>1166.41</ele>
        <time>2022-08-28T10:01:42.999Z</time>
      </trkpt>
      <trkpt lat="44.71456" lon="5.48772">
        <ele>1172.49</ele>
        <time>2022-08-28T10:02:19.458Z</time>
      </trkpt>
      <trkpt lat="44.71473" lon="5.48762">
        <ele>1178.14</ele>
        <time>2022-08-28T10:03:00.296Z</time>
      </trkpt>
      <trkpt lat="44.71489" lon="5.4875">
        <ele>1182.51</ele>
        <time>2022-08-28T10:03:33.999Z</time>
      </trkpt>
      <trkpt lat="44.71507" lon="5.48746">
        <ele>1186.5</ele>
        <time>2022-08-28T10:04:01.684Z</time>
      </trkpt>
      <trkpt lat="44.71525" lon="5.48738">
        <ele>1190.18</ele>
        <time>2022-08-28T10:04:28.080Z</time>
      </trkpt>
      <trkpt lat="44.71538" lon="5.4872">
        <ele>1195.18</ele>
        <time>2022-08-28T10:04:55.684Z</time>
      </trkpt>
      <trkpt lat="44.71552" lon="5.48704">
        <ele>1197.85</ele>
        <time>2022-08-28T10:05:18.263Z</time>
      </trkpt>
      <trkpt lat="44.71568" lon="5.48691">
        <ele>1201.89</ele>
        <time>2022-08-28T10:05:46.499Z</time>
      </trkpt>
      <trkpt lat="44.7158" lon="5.48672">
        <ele>1206.63</ele>
        <time>2022-08-28T10:06:16.226Z</time>
      </trkpt>
      <trkpt lat="44.71598" lon="5.48665">
        <ele>1209.01</ele>
        <time>2022-08-28T10:06:38.546Z</time>
      </trkpt>
      <trkpt lat="44.71609" lon="5.48643">
        <ele>1211</ele>
        <time>2022-08-28T10:06:54.523Z</time>
      </trkpt>
      <trkpt lat="44.71617" lon="5.48619">
        <ele>1213.72</ele>
        <time>2022-08-28T10:07:12.999Z</time>
      </trkpt>
      <trkpt lat="44.71629" lon="5.48601">
        <ele>1219.63</ele>
        <time>2022-08-28T10:07:51.478Z</time>
      </trkpt>
      <trkpt lat="44.71638" lon="5.48578">
        <ele>1224.6</ele>
        <time>2022-08-28T10:08:24.999Z</time>
      </trkpt>
      <trkpt lat="44.71654" lon="5.48566">
        <ele>1227.85</ele>
        <time>2022-08-28T10:08:45.421Z</time>
      </trkpt>
      <trkpt lat="44.71659" lon="5.4859">
        <ele>1232.52</ele>
        <time>2022-08-28T10:09:18.240Z</time>
      </trkpt>
      <trkpt lat="44.71676" lon="5.48582">
        <ele>1245.78</ele>
        <time>2022-08-28T10:10:49.999Z</time>
      </trkpt>
      <trkpt lat="44.71686" lon="5.48561">
        <ele>1250.52</ele>
        <time>2022-08-28T10:11:16.598Z</time>
      </trkpt>
      <trkpt lat="44.71694" lon="5.48538">
        <ele>1255.78</ele>
        <time>2022-08-28T10:11:46.365Z</time>
      </trkpt>
      <trkpt lat="44.71711" lon="5.48545">
        <ele>1263.65</ele>
        <time>2022-08-28T10:12:49.019Z</time>
      </trkpt>
      <trkpt lat="44.71724" lon="5.48563">
        <ele>1268.17</ele>
        <time>2022-08-28T10:13:12.558Z</time>
      </trkpt>
      <trkpt lat="44.71724" lon="5.48538">
        <ele>1277.67</ele>
        <time>2022-08-28T10:14:09.584Z</time>
      </trkpt>
      <trkpt lat="44.71742" lon="5.48545">
        <ele>1281.08</ele>
        <time>2022-08-28T10:14:44.546Z</time>
      </trkpt>
      <trkpt lat="44.71744" lon="5.48519">
        <ele>1286.63</ele>
        <time>2022-08-28T10:15:20.441Z</time>
      </trkpt>
      <trkpt lat="44.71759" lon="5.48533">
        <ele>1290.79</ele>
        <time>2022-08-28T10:15:42.540Z</time>
      </trkpt>
      <trkpt lat="44.71767" lon="5.48556">
        <ele>1296.68</ele>
        <time>2022-08-28T10:16:22.000Z</time>
      </trkpt>
      <trkpt lat="44.71781" lon="5.48574">
        <ele>1311.16</ele>
        <time>2022-08-28T10:18:33.225Z</time>
      </trkpt>
      <trkpt lat="44.71798" lon="5.48569">
        <ele>1322.16</ele>
        <time>2022-08-28T10:19:49.000Z</time>
      </trkpt>
      <trkpt lat="44.71805" lon="5.48545">
        <ele>1324.6</ele>
        <time>2022-08-28T10:20:08.000Z</time>
      </trkpt>
      <trkpt lat="44.71813" lon="5.48522">
        <ele>1326.42</ele>
        <time>2022-08-28T10:20:27.337Z</time>
      </trkpt>
      <trkpt lat="44.71819" lon="5.48497">
        <ele>1330.7</ele>
        <time>2022-08-28T10:20:51.000Z</time>
      </trkpt>
      <trkpt lat="44.71828" lon="5.48474">
        <ele>1334.77</ele>
        <time>2022-08-28T10:21:19.666Z</time>
      </trkpt>
      <trkpt lat="44.71826" lon="5.48449">
        <ele>1338.98</ele>
        <time>2022-08-28T10:21:47.265Z</time>
      </trkpt>
      <trkpt lat="44.71824" lon="5.48423">
        <ele>1344.61</ele>
        <time>2022-08-28T10:22:22.000Z</time>
      </trkpt>
      <trkpt lat="44.71827" lon="5.48397">
        <ele>1347.85</ele>
        <time>2022-08-28T10:22:45.723Z</time>
      </trkpt>
      <trkpt lat="44.71833" lon="5.48373">
        <ele>1350.75</ele>
        <time>2022-08-28T10:23:11.000Z</time>
      </trkpt>
      <trkpt lat="44.71843" lon="5.48351">
        <ele>1355.39</ele>
        <time>2022-08-28T10:23:46.000Z</time>
      </trkpt>
      <trkpt lat="44.71859" lon="5.48341">
        <ele>1360.47</ele>
        <time>2022-08-28T10:26:13.158Z</time>
      </trkpt>
      <trkpt lat="44.71877" lon="5.4834">
        <ele>1365.09</ele>
        <time>2022-08-28T10:26:44.506Z</time>
      </trkpt>
      <trkpt lat="44.71871" lon="5.48364">
        <ele>1369.17</ele>
        <time>2022-08-28T10:27:17.000Z</time>
      </trkpt>
      <trkpt lat="44.71889" lon="5.4837">
        <ele>1377.98</ele>
        <time>2022-08-28T10:28:16.162Z</time>
      </trkpt>
      <trkpt lat="44.71897" lon="5.48393">
        <ele>1385.54</ele>
        <time>2022-08-28T10:29:05.465Z</time>
      </trkpt>
      <trkpt lat="44.7191" lon="5.48411">
        <ele>1393.97</ele>
        <time>2022-08-28T10:30:05.258Z</time>
      </trkpt>
      <trkpt lat="44.71897" lon="5.48429">
        <ele>1395.02</ele>
        <time>2022-08-28T10:30:56.000Z</time>
      </trkpt>
      <trkpt lat="44.71884" lon="5.48447">
        <ele>1399.68</ele>
        <time>2022-08-28T10:31:57.999Z</time>
      </trkpt>
      <trkpt lat="44.71902" lon="5.48443">
        <ele>1404.06</ele>
        <time>2022-08-28T10:32:26.376Z</time>
      </trkpt>
      <trkpt lat="44.71909" lon="5.48467">
        <ele>1410.85</ele>
        <time>2022-08-28T10:33:06.159Z</time>
      </trkpt>
      <trkpt lat="44.7191" lon="5.48493">
        <ele>1416.22</ele>
        <time>2022-08-28T10:33:38.479Z</time>
      </trkpt>
      <trkpt lat="44.71929" lon="5.4849">
        <ele>1419.11</ele>
        <time>2022-08-28T10:33:57.027Z</time>
      </trkpt>
      <trkpt lat="44.7194" lon="5.48511">
        <ele>1427.56</ele>
        <time>2022-08-28T10:34:47.399Z</time>
      </trkpt>
      <trkpt lat="44.71958" lon="5.48507">
        <ele>1431.14</ele>
        <time>2022-08-28T10:35:10.319Z</time>
      </trkpt>
      <trkpt lat="44.71976" lon="5.4851">
        <ele>1439.07</ele>
        <time>2022-08-28T10:35:53.382Z</time>
      </trkpt>
      <trkpt lat="44.71994" lon="5.4851">
        <ele>1442.6</ele>
        <time>2022-08-28T10:36:13.425Z</time>
      </trkpt>
      <trkpt lat="44.72026" lon="5.48487">
        <ele>1452.78</ele>
        <time>2022-08-28T10:37:10.182Z</time>
      </trkpt>
      <trkpt lat="44.72044" lon="5.48492">
        <ele>1455.95</ele>
        <time>2022-08-28T10:37:34.999Z</time>
      </trkpt>
      <trkpt lat="44.72063" lon="5.4849">
        <ele>1461.49</ele>
        <time>2022-08-28T10:38:18.171Z</time>
      </trkpt>
      <trkpt lat="44.72077" lon="5.48473">
        <ele>1473.51</ele>
        <time>2022-08-28T10:41:51.999Z</time>
      </trkpt>
      <trkpt lat="44.72083" lon="5.48498">
        <ele>1481.67</ele>
        <time>2022-08-28T10:42:34.056Z</time>
      </trkpt>
      <trkpt lat="44.72101" lon="5.48497">
        <ele>1490.79</ele>
        <time>2022-08-28T10:43:20.606Z</time>
      </trkpt>
      <trkpt lat="44.72119" lon="5.48495">
        <ele>1498.42</ele>
        <time>2022-08-28T10:44:06.226Z</time>
      </trkpt>
      <trkpt lat="44.72135" lon="5.48507">
        <ele>1509.72</ele>
        <time>2022-08-28T10:45:05.544Z</time>
      </trkpt>
      <trkpt lat="44.72153" lon="5.48512">
        <ele>1514.61</ele>
        <time>2022-08-28T10:45:35.541Z</time>
      </trkpt>
      <trkpt lat="44.72171" lon="5.4852">
        <ele>1518.2</ele>
        <time>2022-08-28T10:45:59.499Z</time>
      </trkpt>
      <trkpt lat="44.72189" lon="5.48525">
        <ele>1528.07</ele>
        <time>2022-08-28T10:46:52.890Z</time>
      </trkpt>
      <trkpt lat="44.72186" lon="5.4855">
        <ele>1533.23</ele>
        <time>2022-08-28T10:47:25.158Z</time>
      </trkpt>
      <trkpt lat="44.72196" lon="5.48572">
        <ele>1544.78</ele>
        <time>2022-08-28T10:48:53.999Z</time>
      </trkpt>
      <trkpt lat="44.72197" lon="5.48598">
        <ele>1553.69</ele>
        <time>2022-08-28T10:49:43.999Z</time>
      </trkpt>
      <trkpt lat="44.72188" lon="5.4862">
        <ele>1559.39</ele>
        <time>2022-08-28T10:50:14.000Z</time>
      </trkpt>
      <trkpt lat="44.72176" lon="5.4864">
        <ele>1564.13</ele>
        <time>2022-08-28T10:50:39.418Z</time>
      </trkpt>
      <trkpt lat="44.72163" lon="5.48658">
        <ele>1566.8</ele>
        <time>2022-08-28T10:51:05.603Z</time>
      </trkpt>
      <trkpt lat="44.72151" lon="5.48678">
        <ele>1572.04</ele>
        <time>2022-08-28T10:51:29.440Z</time>
      </trkpt>
      <trkpt lat="44.72141" lon="5.487">
        <ele>1579.66</ele>
        <time>2022-08-28T10:52:07.696Z</time>
      </trkpt>
      <trkpt lat="44.7213" lon="5.48719">
        <ele>1585.99</ele>
        <time>2022-08-28T10:52:42.947Z</time>
      </trkpt>
      <trkpt lat="44.7211" lon="5.48719">
        <ele>1589.03</ele>
        <time>2022-08-28T10:53:34.499Z</time>
      </trkpt>
      <trkpt lat="44.72094" lon="5.48731">
        <ele>1598.27</ele>
        <time>2022-08-28T10:54:21.479Z</time>
      </trkpt>
      <trkpt lat="44.72084" lon="5.48752">
        <ele>1606.98</ele>
        <time>2022-08-28T10:55:25.486Z</time>
      </trkpt>
      <trkpt lat="44.72069" lon="5.48768">
        <ele>1615.15</ele>
        <time>2022-08-28T10:56:16.000Z</time>
      </trkpt>
      <trkpt lat="44.7208" lon="5.4879">
        <ele>1624.13</ele>
        <time>2022-08-28T10:57:15.000Z</time>
      </trkpt>
      <trkpt lat="44.72097" lon="5.48796">
        <ele>1624.28</ele>
        <time>2022-08-28T10:57:39.517Z</time>
      </trkpt>
      <trkpt lat="44.72085" lon="5.48815">
        <ele>1628.06</ele>
        <time>2022-08-28T10:58:51.684Z</time>
      </trkpt>
      <trkpt lat="44.72068" lon="5.48821">
        <ele>1632.03</ele>
        <time>2022-08-28T10:59:12.641Z</time>
      </trkpt>
      <trkpt lat="44.72049" lon="5.48825">
        <ele>1635.21</ele>
        <time>2022-08-28T10:59:39.012Z</time>
      </trkpt>
      <trkpt lat="44.7205" lon="5.48851">
        <ele>1643.04</ele>
        <time>2022-08-28T11:00:38.205Z</time>
      </trkpt>
      <trkpt lat="44.72033" lon="5.48841">
        <ele>1642.73</ele>
        <time>2022-08-28T11:05:04.000Z</time>
      </trkpt>
      <trkpt lat="44.72051" lon="5.48838">
        <ele>1643.85</ele>
        <time>2022-08-28T11:05:31.302Z</time>
      </trkpt>
      <trkpt lat="44.72068" lon="5.48846">
        <ele>1647.14</ele>
        <time>2022-08-28T11:05:51.379Z</time>
      </trkpt>
      <trkpt lat="44.72081" lon="5.48864">
        <ele>1653.26</ele>
        <time>2022-08-28T11:06:29.705Z</time>
      </trkpt>
      <trkpt lat="44.72087" lon="5.48888">
        <ele>1667.97</ele>
        <time>2022-08-28T11:08:35.479Z</time>
      </trkpt>
      <trkpt lat="44.721" lon="5.48905">
        <ele>1672.43</ele>
        <time>2022-08-28T11:09:57.301Z</time>
      </trkpt>
      <trkpt lat="44.72118" lon="5.48907">
        <ele>1677.36</ele>
        <time>2022-08-28T11:10:25.650Z</time>
      </trkpt>
      <trkpt lat="44.72136" lon="5.48913">
        <ele>1682.38</ele>
        <time>2022-08-28T11:10:54.565Z</time>
      </trkpt>
      <trkpt lat="44.72128" lon="5.48937">
        <ele>1689.24</ele>
        <time>2022-08-28T11:11:38.704Z</time>
      </trkpt>
      <trkpt lat="44.7211" lon="5.48934">
        <ele>1692.93</ele>
        <time>2022-08-28T11:12:02.678Z</time>
      </trkpt>
      <trkpt lat="44.72105" lon="5.48959">
        <ele>1699.7</ele>
        <time>2022-08-28T11:13:11.201Z</time>
      </trkpt>
      <trkpt lat="44.72114" lon="5.48982">
        <ele>1698.34</ele>
        <time>2022-08-28T11:13:32.999Z</time>
      </trkpt>
      <trkpt lat="44.72125" lon="5.49003">
        <ele>1697.67</ele>
        <time>2022-08-28T11:16:03.999Z</time>
      </trkpt>
      <trkpt lat="44.72132" lon="5.49027">
        <ele>1695.85</ele>
        <time>2022-08-28T11:16:55.422Z</time>
      </trkpt>
      <trkpt lat="44.72131" lon="5.49053">
        <ele>1694.55</ele>
        <time>2022-08-28T11:17:30.498Z</time>
      </trkpt>
      <trkpt lat="44.72122" lon="5.49075">
        <ele>1693.25</ele>
        <time>2022-08-28T11:17:51.458Z</time>
      </trkpt>
      <trkpt lat="44.72135" lon="5.49091">
        <ele>1690.78</ele>
        <time>2022-08-28T11:20:31.999Z</time>
      </trkpt>
      <trkpt lat="44.72143" lon="5.49115">
        <ele>1690.09</ele>
        <time>2022-08-28T11:21:09.342Z</time>
      </trkpt>
      <trkpt lat="44.72131" lon="5.49135">
        <ele>1686.82</ele>
        <time>2022-08-28T11:26:46.999Z</time>
      </trkpt>
      <trkpt lat="44.72126" lon="5.4916">
        <ele>1686.41</ele>
        <time>2022-08-28T11:27:19.440Z</time>
      </trkpt>
      <trkpt lat="44.72117" lon="5.49182">
        <ele>1685.86</ele>
        <time>2022-08-28T11:27:45.747Z</time>
      </trkpt>
      <trkpt lat="44.72109" lon="5.49206">
        <ele>1683.9</ele>
        <time>2022-08-28T11:27:58.050Z</time>
      </trkpt>
      <trkpt lat="44.72101" lon="5.49229">
        <ele>1681.14</ele>
        <time>2022-08-28T11:28:40.485Z</time>
      </trkpt>
      <trkpt lat="44.72089" lon="5.49248">
        <ele>1679.81</ele>
        <time>2022-08-28T11:29:08.559Z</time>
      </trkpt>
      <trkpt lat="44.72078" lon="5.49268">
        <ele>1678.89</ele>
        <time>2022-08-28T11:29:23.000Z</time>
      </trkpt>
      <trkpt lat="44.72065" lon="5.49286">
        <ele>1676.6</ele>
        <time>2022-08-28T11:30:10.685Z</time>
      </trkpt>
      <trkpt lat="44.72046" lon="5.49291">
        <ele>1675.06</ele>
        <time>2022-08-28T11:30:26.085Z</time>
      </trkpt>
      <trkpt lat="44.72028" lon="5.49294">
        <ele>1677</ele>
        <time>2022-08-28T11:31:08.401Z</time>
      </trkpt>
      <trkpt lat="44.72032" lon="5.49319">
        <ele>1677.13</ele>
        <time>2022-08-28T11:32:37.000Z</time>
      </trkpt>
      <trkpt lat="44.72021" lon="5.49339">
        <ele>1678.5</ele>
        <time>2022-08-28T11:32:58.000Z</time>
      </trkpt>
      <trkpt lat="44.72012" lon="5.49362">
        <ele>1678.5</ele>
        <time>2022-08-28T11:33:38.000Z</time>
      </trkpt>
      <trkpt lat="44.72002" lon="5.49383">
        <ele>1678.38</ele>
        <time>2022-08-28T11:34:07.426Z</time>
      </trkpt>
      <trkpt lat="44.71983" lon="5.49383">
        <ele>1679.44</ele>
        <time>2022-08-28T11:34:38.679Z</time>
      </trkpt>
      <trkpt lat="44.71971" lon="5.49402">
        <ele>1679.76</ele>
        <time>2022-08-28T11:35:17.203Z</time>
      </trkpt>
      <trkpt lat="44.71964" lon="5.49425">
        <ele>1682.62</ele>
        <time>2022-08-28T11:35:47.602Z</time>
      </trkpt>
      <trkpt lat="44.71958" lon="5.49451">
        <ele>1684.19</ele>
        <time>2022-08-28T11:36:21.319Z</time>
      </trkpt>
      <trkpt lat="44.71954" lon="5.49475">
        <ele>1686.91</ele>
        <time>2022-08-28T11:36:57.606Z</time>
      </trkpt>
      <trkpt lat="44.71955" lon="5.49501">
        <ele>1689.82</ele>
        <time>2022-08-28T11:39:55.705Z</time>
      </trkpt>
      <trkpt lat="44.71947" lon="5.49524">
        <ele>1688.82</ele>
        <time>2022-08-28T11:40:17.604Z</time>
      </trkpt>
      <trkpt lat="44.71937" lon="5.49545">
        <ele>1691.45</ele>
        <time>2022-08-28T11:40:58.241Z</time>
      </trkpt>
      <trkpt lat="44.7192" lon="5.49558">
        <ele>1688.08</ele>
        <time>2022-08-28T11:41:39.000Z</time>
      </trkpt>
      <trkpt lat="44.71908" lon="5.49577">
        <ele>1688.7</ele>
        <time>2022-08-28T11:42:30.000Z</time>
      </trkpt>
      <trkpt lat="44.71896" lon="5.49596">
        <ele>1686.08</ele>
        <time>2022-08-28T11:43:42.261Z</time>
      </trkpt>
      <trkpt lat="44.71882" lon="5.49614">
        <ele>1686.96</ele>
        <time>2022-08-28T11:44:27.373Z</time>
      </trkpt>
      <trkpt lat="44.71869" lon="5.49631">
        <ele>1687.04</ele>
        <time>2022-08-28T11:44:50.000Z</time>
      </trkpt>
      <trkpt lat="44.71851" lon="5.49634">
        <ele>1687.14</ele>
        <time>2022-08-28T11:45:26.999Z</time>
      </trkpt>
      <trkpt lat="44.71833" lon="5.49636">
        <ele>1688.84</ele>
        <time>2022-08-28T11:46:07.563Z</time>
      </trkpt>
      <trkpt lat="44.71818" lon="5.49621">
        <ele>1691.77</ele>
        <time>2022-08-28T11:47:06.999Z</time>
      </trkpt>
      <trkpt lat="44.718" lon="5.49624">
        <ele>1690.97</ele>
        <time>2022-08-28T11:47:22.999Z</time>
      </trkpt>
      <trkpt lat="44.718" lon="5.49597">
        <ele>1688.63</ele>
        <time>2022-08-28T11:51:28.999Z</time>
      </trkpt>
      <trkpt lat="44.71789" lon="5.49617">
        <ele>1687.9</ele>
        <time>2022-08-28T12:14:54.000Z</time>
      </trkpt>
      <trkpt lat="44.7179" lon="5.49592">
        <ele>1687.5</ele>
        <time>2022-08-28T12:20:09.000Z</time>
      </trkpt>
      <trkpt lat="44.7179" lon="5.49617">
        <ele>1691.63</ele>
        <time>2022-08-28T12:24:45.999Z</time>
      </trkpt>
      <trkpt lat="44.71801" lon="5.49639">
        <ele>1694.44</ele>
        <time>2022-08-28T12:25:35.999Z</time>
      </trkpt>
      <trkpt lat="44.71797" lon="5.49664">
        <ele>1699.27</ele>
        <time>2022-08-28T12:26:12.999Z</time>
      </trkpt>
      <trkpt lat="44.71802" lon="5.49688">
        <ele>1704.09</ele>
        <time>2022-08-28T12:27:00.999Z</time>
      </trkpt>
      <trkpt lat="44.71819" lon="5.49679">
        <ele>1717.02</ele>
        <time>2022-08-28T12:28:57.999Z</time>
      </trkpt>
      <trkpt lat="44.71827" lon="5.49703">
        <ele>1723.66</ele>
        <time>2022-08-28T12:29:47.999Z</time>
      </trkpt>
      <trkpt lat="44.71832" lon="5.49727">
        <ele>1733.89</ele>
        <time>2022-08-28T12:32:06.999Z</time>
      </trkpt>
      <trkpt lat="44.71839" lon="5.4975">
        <ele>1745.88</ele>
        <time>2022-08-28T12:33:13.999Z</time>
      </trkpt>
      <trkpt lat="44.71858" lon="5.49748">
        <ele>1753.29</ele>
        <time>2022-08-28T12:34:18.999Z</time>
      </trkpt>
      <trkpt lat="44.71874" lon="5.49759">
        <ele>1764.34</ele>
        <time>2022-08-28T12:35:29.999Z</time>
      </trkpt>
      <trkpt lat="44.71893" lon="5.4976">
        <ele>1770.53</ele>
        <time>2022-08-28T12:36:09.999Z</time>
      </trkpt>
      <trkpt lat="44.71909" lon="5.4975">
        <ele>1772.72</ele>
        <time>2022-08-28T12:36:35.397Z</time>
      </trkpt>
      <trkpt lat="44.71923" lon="5.49731">
        <ele>1773.96</ele>
        <time>2022-08-28T12:36:59.696Z</time>
      </trkpt>
      <trkpt lat="44.71938" lon="5.49744">
        <ele>1780.79</ele>
        <time>2022-08-28T12:37:53.229Z</time>
      </trkpt>
      <trkpt lat="44.71956" lon="5.49746">
        <ele>1782.43</ele>
        <time>2022-08-28T12:38:20.277Z</time>
      </trkpt>
      <trkpt lat="44.71975" lon="5.49744">
        <ele>1781.22</ele>
        <time>2022-08-28T12:38:40.313Z</time>
      </trkpt>
      <trkpt lat="44.71981" lon="5.4972">
        <ele>1779.72</ele>
        <time>2022-08-28T12:39:01.694Z</time>
      </trkpt>
      <trkpt lat="44.7199" lon="5.49697">
        <ele>1778.94</ele>
        <time>2022-08-28T12:39:22.497Z</time>
      </trkpt>
      <trkpt lat="44.71997" lon="5.49672">
        <ele>1777.55</ele>
        <time>2022-08-28T12:39:39.475Z</time>
      </trkpt>
      <trkpt lat="44.72004" lon="5.49649">
        <ele>1776.49</ele>
        <time>2022-08-28T12:40:00.471Z</time>
      </trkpt>
      <trkpt lat="44.71996" lon="5.49626">
        <ele>1774</ele>
        <time>2022-08-28T12:40:24.694Z</time>
      </trkpt>
      <trkpt lat="44.72001" lon="5.49601">
        <ele>1772.02</ele>
        <time>2022-08-28T12:40:45.236Z</time>
      </trkpt>
      <trkpt lat="44.72008" lon="5.49576">
        <ele>1769.07</ele>
        <time>2022-08-28T12:41:12.000Z</time>
      </trkpt>
      <trkpt lat="44.72013" lon="5.49551">
        <ele>1769.23</ele>
        <time>2022-08-28T12:41:32.000Z</time>
      </trkpt>
      <trkpt lat="44.72021" lon="5.49529">
        <ele>1769.72</ele>
        <time>2022-08-28T12:42:00.892Z</time>
      </trkpt>
      <trkpt lat="44.72039" lon="5.49525">
        <ele>1768.3</ele>
        <time>2022-08-28T12:42:50.598Z</time>
      </trkpt>
      <trkpt lat="44.72047" lon="5.49501">
        <ele>1764.57</ele>
        <time>2022-08-28T12:43:26.452Z</time>
      </trkpt>
      <trkpt lat="44.72039" lon="5.49478">
        <ele>1761.08</ele>
        <time>2022-08-28T12:43:43.548Z</time>
      </trkpt>
      <trkpt lat="44.72045" lon="5.49454">
        <ele>1759</ele>
        <time>2022-08-28T12:44:00.255Z</time>
      </trkpt>
      <trkpt lat="44.7204" lon="5.49429">
        <ele>1755.83</ele>
        <time>2022-08-28T12:44:22.514Z</time>
      </trkpt>
      <trkpt lat="44.72042" lon="5.49403">
        <ele>1754.33</ele>
        <time>2022-08-28T12:45:32.000Z</time>
      </trkpt>
      <trkpt lat="44.72045" lon="5.49378">
        <ele>1753.75</ele>
        <time>2022-08-28T12:46:02.000Z</time>
      </trkpt>
      <trkpt lat="44.72057" lon="5.49357">
        <ele>1752.52</ele>
        <time>2022-08-28T12:46:34.000Z</time>
      </trkpt>
      <trkpt lat="44.72064" lon="5.49334">
        <ele>1749.58</ele>
        <time>2022-08-28T12:47:19.698Z</time>
      </trkpt>
      <trkpt lat="44.72072" lon="5.4931">
        <ele>1750.72</ele>
        <time>2022-08-28T12:47:44.973Z</time>
      </trkpt>
      <trkpt lat="44.72078" lon="5.49286">
        <ele>1749.65</ele>
        <time>2022-08-28T12:48:04.491Z</time>
      </trkpt>
      <trkpt lat="44.72087" lon="5.49262">
        <ele>1747.77</ele>
        <time>2022-08-28T12:51:03.693Z</time>
      </trkpt>
      <trkpt lat="44.72092" lon="5.49238">
        <ele>1746.24</ele>
        <time>2022-08-28T12:51:28.496Z</time>
      </trkpt>
      <trkpt lat="44.72108" lon="5.49225">
        <ele>1744.11</ele>
        <time>2022-08-28T12:53:10.315Z</time>
      </trkpt>
      <trkpt lat="44.72119" lon="5.49204">
        <ele>1745.48</ele>
        <time>2022-08-28T12:53:38.000Z</time>
      </trkpt>
      <trkpt lat="44.7213" lon="5.49184">
        <ele>1746.84</ele>
        <time>2022-08-28T12:53:59.313Z</time>
      </trkpt>
      <trkpt lat="44.72139" lon="5.49162">
        <ele>1747.46</ele>
        <time>2022-08-28T12:54:15.153Z</time>
      </trkpt>
      <trkpt lat="44.7215" lon="5.49141">
        <ele>1746.48</ele>
        <time>2022-08-28T12:54:28.529Z</time>
      </trkpt>
      <trkpt lat="44.72151" lon="5.49115">
        <ele>1747.14</ele>
        <time>2022-08-28T12:54:47.877Z</time>
      </trkpt>
      <trkpt lat="44.72156" lon="5.4909">
        <ele>1747.87</ele>
        <time>2022-08-28T12:55:16.000Z</time>
      </trkpt>
      <trkpt lat="44.72156" lon="5.49064">
        <ele>1746.94</ele>
        <time>2022-08-28T12:55:32.557Z</time>
      </trkpt>
      <trkpt lat="44.72168" lon="5.49043">
        <ele>1745.28</ele>
        <time>2022-08-28T12:56:02.608Z</time>
      </trkpt>
      <trkpt lat="44.72184" lon="5.49031">
        <ele>1743.06</ele>
        <time>2022-08-28T12:56:15.688Z</time>
      </trkpt>
      <trkpt lat="44.72202" lon="5.49029">
        <ele>1741.01</ele>
        <time>2022-08-28T12:56:48.196Z</time>
      </trkpt>
      <trkpt lat="44.7222" lon="5.49023">
        <ele>1741.58</ele>
        <time>2022-08-28T12:57:04.999Z</time>
      </trkpt>
      <trkpt lat="44.72237" lon="5.49014">
        <ele>1740.36</ele>
        <time>2022-08-28T12:57:20.999Z</time>
      </trkpt>
      <trkpt lat="44.7225" lon="5.48995">
        <ele>1738.64</ele>
        <time>2022-08-28T12:57:50.610Z</time>
      </trkpt>
      <trkpt lat="44.72267" lon="5.48984">
        <ele>1738.38</ele>
        <time>2022-08-28T12:58:12.555Z</time>
      </trkpt>
      <trkpt lat="44.72284" lon="5.48977">
        <ele>1737.33</ele>
        <time>2022-08-28T12:58:29.999Z</time>
      </trkpt>
      <trkpt lat="44.72301" lon="5.48963">
        <ele>1734.15</ele>
        <time>2022-08-28T12:58:46.999Z</time>
      </trkpt>
      <trkpt lat="44.72316" lon="5.48949">
        <ele>1731.61</ele>
        <time>2022-08-28T12:59:05.630Z</time>
      </trkpt>
      <trkpt lat="44.72332" lon="5.48935">
        <ele>1729.9</ele>
        <time>2022-08-28T12:59:23.573Z</time>
      </trkpt>
      <trkpt lat="44.72339" lon="5.48912">
        <ele>1729.12</ele>
        <time>2022-08-28T13:00:08.999Z</time>
      </trkpt>
      <trkpt lat="44.72333" lon="5.48906">
        <ele>1730.63</ele>
        <time>2022-08-28T13:06:43.999Z</time>
      </trkpt>
      <trkpt lat="44.72315" lon="5.48912">
        <ele>1727.1</ele>
        <time>2022-08-28T13:07:24.318Z</time>
      </trkpt>
      <trkpt lat="44.72297" lon="5.48918">
        <ele>1725.18</ele>
        <time>2022-08-28T13:07:36.515Z</time>
      </trkpt>
      <trkpt lat="44.7228" lon="5.48921">
        <ele>1722.8</ele>
        <time>2022-08-28T13:07:52.437Z</time>
      </trkpt>
      <trkpt lat="44.72261" lon="5.48922">
        <ele>1719.48</ele>
        <time>2022-08-28T13:08:14.229Z</time>
      </trkpt>
      <trkpt lat="44.72243" lon="5.48924">
        <ele>1713.9</ele>
        <time>2022-08-28T13:08:37.999Z</time>
      </trkpt>
      <trkpt lat="44.72224" lon="5.48928">
        <ele>1710.17</ele>
        <time>2022-08-28T13:08:56.021Z</time>
      </trkpt>
      <trkpt lat="44.72206" lon="5.48928">
        <ele>1705.83</ele>
        <time>2022-08-28T13:10:13.309Z</time>
      </trkpt>
      <trkpt lat="44.72188" lon="5.48934">
        <ele>1703.86</ele>
        <time>2022-08-28T13:10:28.118Z</time>
      </trkpt>
      <trkpt lat="44.7217" lon="5.48934">
        <ele>1700.45</ele>
        <time>2022-08-28T13:10:46.999Z</time>
      </trkpt>
      <trkpt lat="44.72152" lon="5.48937">
        <ele>1696.32</ele>
        <time>2022-08-28T13:11:21.011Z</time>
      </trkpt>
      <trkpt lat="44.72134" lon="5.48939">
        <ele>1694.82</ele>
        <time>2022-08-28T13:11:36.890Z</time>
      </trkpt>
      <trkpt lat="44.72116" lon="5.48943">
        <ele>1693.68</ele>
        <time>2022-08-28T13:12:34.317Z</time>
      </trkpt>
      <trkpt lat="44.72132" lon="5.48931">
        <ele>1683.46</ele>
        <time>2022-08-28T13:13:27.000Z</time>
      </trkpt>
      <trkpt lat="44.72114" lon="5.48931">
        <ele>1675.24</ele>
        <time>2022-08-28T13:14:05.313Z</time>
      </trkpt>
      <trkpt lat="44.72097" lon="5.4892">
        <ele>1670.78</ele>
        <time>2022-08-28T13:14:24.613Z</time>
      </trkpt>
      <trkpt lat="44.72081" lon="5.48906">
        <ele>1665.39</ele>
        <time>2022-08-28T13:14:48.598Z</time>
      </trkpt>
      <trkpt lat="44.72064" lon="5.48896">
        <ele>1652.31</ele>
        <time>2022-08-28T13:16:50.425Z</time>
      </trkpt>
      <trkpt lat="44.72051" lon="5.48879">
        <ele>1649.44</ele>
        <time>2022-08-28T13:17:12.000Z</time>
      </trkpt>
      <trkpt lat="44.72036" lon="5.48863">
        <ele>1641.42</ele>
        <time>2022-08-28T13:17:51.000Z</time>
      </trkpt>
      <trkpt lat="44.72024" lon="5.48843">
        <ele>1634.37</ele>
        <time>2022-08-28T13:18:30.391Z</time>
      </trkpt>
      <trkpt lat="44.72042" lon="5.48837">
        <ele>1627.82</ele>
        <time>2022-08-28T13:18:56.200Z</time>
      </trkpt>
      <trkpt lat="44.7206" lon="5.48834">
        <ele>1624.72</ele>
        <time>2022-08-28T13:19:14.037Z</time>
      </trkpt>
      <trkpt lat="44.72078" lon="5.4883">
        <ele>1621.78</ele>
        <time>2022-08-28T13:19:33.295Z</time>
      </trkpt>
      <trkpt lat="44.72095" lon="5.4882">
        <ele>1616.55</ele>
        <time>2022-08-28T13:20:01.710Z</time>
      </trkpt>
      <trkpt lat="44.7208" lon="5.48807">
        <ele>1610.51</ele>
        <time>2022-08-28T13:20:34.177Z</time>
      </trkpt>
      <trkpt lat="44.72097" lon="5.488">
        <ele>1602.99</ele>
        <time>2022-08-28T13:21:10.713Z</time>
      </trkpt>
      <trkpt lat="44.72098" lon="5.48774">
        <ele>1592.18</ele>
        <time>2022-08-28T13:21:54.000Z</time>
      </trkpt>
      <trkpt lat="44.72112" lon="5.48757">
        <ele>1590.29</ele>
        <time>2022-08-28T13:23:01.000Z</time>
      </trkpt>
      <trkpt lat="44.72094" lon="5.4875">
        <ele>1584.3</ele>
        <time>2022-08-28T13:23:48.274Z</time>
      </trkpt>
      <trkpt lat="44.72076" lon="5.48745">
        <ele>1581.18</ele>
        <time>2022-08-28T13:24:08.000Z</time>
      </trkpt>
      <trkpt lat="44.72091" lon="5.4873">
        <ele>1577.52</ele>
        <time>2022-08-28T13:24:27.000Z</time>
      </trkpt>
      <trkpt lat="44.72109" lon="5.48734">
        <ele>1571.97</ele>
        <time>2022-08-28T13:24:42.211Z</time>
      </trkpt>
      <trkpt lat="44.72126" lon="5.48724">
        <ele>1546.39</ele>
        <time>2022-08-28T13:26:36.554Z</time>
      </trkpt>
      <trkpt lat="44.72143" lon="5.48713">
        <ele>1541.67</ele>
        <time>2022-08-28T13:26:51.000Z</time>
      </trkpt>
      <trkpt lat="44.72156" lon="5.48694">
        <ele>1536.75</ele>
        <time>2022-08-28T13:27:04.686Z</time>
      </trkpt>
      <trkpt lat="44.72155" lon="5.48668">
        <ele>1534.57</ele>
        <time>2022-08-28T13:27:20.627Z</time>
      </trkpt>
      <trkpt lat="44.72159" lon="5.48643">
        <ele>1531.54</ele>
        <time>2022-08-28T13:27:32.231Z</time>
      </trkpt>
      <trkpt lat="44.7217" lon="5.4862">
        <ele>1529.58</ele>
        <time>2022-08-28T13:27:40.480Z</time>
      </trkpt>
      <trkpt lat="44.72174" lon="5.48595">
        <ele>1529.71</ele>
        <time>2022-08-28T13:27:44.275Z</time>
      </trkpt>
      <trkpt lat="44.72176" lon="5.48569">
        <ele>1527.35</ele>
        <time>2022-08-28T13:27:51.216Z</time>
      </trkpt>
      <trkpt lat="44.72188" lon="5.4855">
        <ele>1522.73</ele>
        <time>2022-08-28T13:28:10.000Z</time>
      </trkpt>
      <trkpt lat="44.72173" lon="5.48535">
        <ele>1513.59</ele>
        <time>2022-08-28T13:28:44.000Z</time>
      </trkpt>
      <trkpt lat="44.72155" lon="5.4854">
        <ele>1505.66</ele>
        <time>2022-08-28T13:30:08.176Z</time>
      </trkpt>
      <trkpt lat="44.72138" lon="5.48547">
        <ele>1499.86</ele>
        <time>2022-08-28T13:30:32.000Z</time>
      </trkpt>
      <trkpt lat="44.72124" lon="5.4853">
        <ele>1489.34</ele>
        <time>2022-08-28T13:31:04.707Z</time>
      </trkpt>
      <trkpt lat="44.72108" lon="5.48518">
        <ele>1484.26</ele>
        <time>2022-08-28T13:31:21.456Z</time>
      </trkpt>
      <trkpt lat="44.7209" lon="5.48513">
        <ele>1478.42</ele>
        <time>2022-08-28T13:31:40.688Z</time>
      </trkpt>
      <trkpt lat="44.72072" lon="5.48506">
        <ele>1465.78</ele>
        <time>2022-08-28T13:32:26.492Z</time>
      </trkpt>
      <trkpt lat="44.72055" lon="5.48494">
        <ele>1456.5</ele>
        <time>2022-08-28T13:32:57.454Z</time>
      </trkpt>
      <trkpt lat="44.72037" lon="5.48493">
        <ele>1449.23</ele>
        <time>2022-08-28T13:33:20.193Z</time>
      </trkpt>
      <trkpt lat="44.7202" lon="5.485">
        <ele>1444.35</ele>
        <time>2022-08-28T13:33:39.373Z</time>
      </trkpt>
      <trkpt lat="44.72004" lon="5.48512">
        <ele>1440.15</ele>
        <time>2022-08-28T13:33:54.870Z</time>
      </trkpt>
      <trkpt lat="44.71985" lon="5.48515">
        <ele>1435.66</ele>
        <time>2022-08-28T13:34:12.000Z</time>
      </trkpt>
      <trkpt lat="44.71967" lon="5.48512">
        <ele>1429.92</ele>
        <time>2022-08-28T13:34:34.477Z</time>
      </trkpt>
      <trkpt lat="44.7195" lon="5.48501">
        <ele>1422.26</ele>
        <time>2022-08-28T13:35:04.999Z</time>
      </trkpt>
      <trkpt lat="44.71935" lon="5.48489">
        <ele>1408.72</ele>
        <time>2022-08-28T13:35:55.213Z</time>
      </trkpt>
      <trkpt lat="44.71908" lon="5.48454">
        <ele>1394.08</ele>
        <time>2022-08-28T13:36:52.494Z</time>
      </trkpt>
      <trkpt lat="44.71894" lon="5.48438">
        <ele>1387.46</ele>
        <time>2022-08-28T13:37:19.999Z</time>
      </trkpt>
      <trkpt lat="44.71889" lon="5.48413">
        <ele>1381.04</ele>
        <time>2022-08-28T13:37:41.169Z</time>
      </trkpt>
      <trkpt lat="44.71892" lon="5.48388">
        <ele>1378.69</ele>
        <time>2022-08-28T13:37:59.999Z</time>
      </trkpt>
      <trkpt lat="44.71876" lon="5.48373">
        <ele>1368.98</ele>
        <time>2022-08-28T13:38:36.276Z</time>
      </trkpt>
      <trkpt lat="44.7186" lon="5.4836">
        <ele>1358.17</ele>
        <time>2022-08-28T13:39:16.416Z</time>
      </trkpt>
      <trkpt lat="44.71841" lon="5.48358">
        <ele>1348.82</ele>
        <time>2022-08-28T13:39:47.397Z</time>
      </trkpt>
      <trkpt lat="44.71831" lon="5.48381">
        <ele>1345.41</ele>
        <time>2022-08-28T13:40:08.173Z</time>
      </trkpt>
      <trkpt lat="44.7183" lon="5.48407">
        <ele>1341.07</ele>
        <time>2022-08-28T13:40:27.377Z</time>
      </trkpt>
      <trkpt lat="44.71832" lon="5.48433">
        <ele>1337.65</ele>
        <time>2022-08-28T13:40:45.700Z</time>
      </trkpt>
      <trkpt lat="44.71828" lon="5.48485">
        <ele>1327.88</ele>
        <time>2022-08-28T13:41:21.727Z</time>
      </trkpt>
      <trkpt lat="44.71822" lon="5.48508">
        <ele>1324.51</ele>
        <time>2022-08-28T13:41:45.378Z</time>
      </trkpt>
      <trkpt lat="44.71818" lon="5.48533">
        <ele>1319.44</ele>
        <time>2022-08-28T13:42:06.037Z</time>
      </trkpt>
      <trkpt lat="44.7181" lon="5.48557">
        <ele>1318.07</ele>
        <time>2022-08-28T13:42:21.515Z</time>
      </trkpt>
      <trkpt lat="44.71794" lon="5.48569">
        <ele>1310.66</ele>
        <time>2022-08-28T13:42:47.879Z</time>
      </trkpt>
      <trkpt lat="44.71776" lon="5.48569">
        <ele>1301.87</ele>
        <time>2022-08-28T13:43:19.999Z</time>
      </trkpt>
      <trkpt lat="44.71762" lon="5.4855">
        <ele>1286.63</ele>
        <time>2022-08-28T13:44:13.011Z</time>
      </trkpt>
      <trkpt lat="44.71745" lon="5.4854">
        <ele>1279.11</ele>
        <time>2022-08-28T13:44:51.139Z</time>
      </trkpt>
      <trkpt lat="44.7173" lon="5.48557">
        <ele>1271.83</ele>
        <time>2022-08-28T13:45:17.376Z</time>
      </trkpt>
      <trkpt lat="44.71713" lon="5.48549">
        <ele>1260.72</ele>
        <time>2022-08-28T13:45:57.999Z</time>
      </trkpt>
      <trkpt lat="44.71696" lon="5.48566">
        <ele>1245.63</ele>
        <time>2022-08-28T13:46:47.999Z</time>
      </trkpt>
      <trkpt lat="44.71684" lon="5.48585">
        <ele>1242.86</ele>
        <time>2022-08-28T13:46:58.274Z</time>
      </trkpt>
      <trkpt lat="44.71672" lon="5.48604">
        <ele>1236.95</ele>
        <time>2022-08-28T13:47:15.999Z</time>
      </trkpt>
      <trkpt lat="44.71656" lon="5.48592">
        <ele>1227.82</ele>
        <time>2022-08-28T13:47:59.145Z</time>
      </trkpt>
      <trkpt lat="44.71638" lon="5.4859">
        <ele>1217.89</ele>
        <time>2022-08-28T13:48:38.095Z</time>
      </trkpt>
      <trkpt lat="44.71625" lon="5.4861">
        <ele>1214.42</ele>
        <time>2022-08-28T13:48:56.152Z</time>
      </trkpt>
      <trkpt lat="44.71619" lon="5.48634">
        <ele>1209.86</ele>
        <time>2022-08-28T13:49:12.168Z</time>
      </trkpt>
      <trkpt lat="44.71601" lon="5.48641">
        <ele>1208.23</ele>
        <time>2022-08-28T13:49:25.575Z</time>
      </trkpt>
      <trkpt lat="44.71586" lon="5.48655">
        <ele>1206.04</ele>
        <time>2022-08-28T13:49:39.317Z</time>
      </trkpt>
      <trkpt lat="44.71572" lon="5.48672">
        <ele>1201.82</ele>
        <time>2022-08-28T13:49:54.753Z</time>
      </trkpt>
      <trkpt lat="44.71557" lon="5.48685">
        <ele>1198.69</ele>
        <time>2022-08-28T13:50:09.151Z</time>
      </trkpt>
      <trkpt lat="44.71542" lon="5.48703">
        <ele>1193.75</ele>
        <time>2022-08-28T13:50:25.611Z</time>
      </trkpt>
      <trkpt lat="44.71531" lon="5.48723">
        <ele>1190.42</ele>
        <time>2022-08-28T13:50:42.251Z</time>
      </trkpt>
      <trkpt lat="44.71515" lon="5.48734">
        <ele>1185.81</ele>
        <time>2022-08-28T13:50:57.329Z</time>
      </trkpt>
      <trkpt lat="44.71498" lon="5.48743">
        <ele>1183.22</ele>
        <time>2022-08-28T13:51:14.277Z</time>
      </trkpt>
      <trkpt lat="44.71479" lon="5.48749">
        <ele>1177.05</ele>
        <time>2022-08-28T13:51:38.297Z</time>
      </trkpt>
      <trkpt lat="44.71463" lon="5.48762">
        <ele>1172.7</ele>
        <time>2022-08-28T13:51:55.000Z</time>
      </trkpt>
      <trkpt lat="44.71446" lon="5.48774">
        <ele>1167.75</ele>
        <time>2022-08-28T13:52:13.272Z</time>
      </trkpt>
      <trkpt lat="44.71428" lon="5.48776">
        <ele>1164.21</ele>
        <time>2022-08-28T13:52:34.566Z</time>
      </trkpt>
      <trkpt lat="44.71411" lon="5.48786">
        <ele>1164.91</ele>
        <time>2022-08-28T13:55:38.000Z</time>
      </trkpt>
      <trkpt lat="44.71393" lon="5.48791">
        <ele>1161.27</ele>
        <time>2022-08-28T13:58:35.198Z</time>
      </trkpt>
      <trkpt lat="44.71375" lon="5.48785">
        <ele>1153.5</ele>
        <time>2022-08-28T13:59:10.334Z</time>
      </trkpt>
      <trkpt lat="44.71356" lon="5.48788">
        <ele>1149.28</ele>
        <time>2022-08-28T13:59:33.712Z</time>
      </trkpt>
      <trkpt lat="44.71339" lon="5.48782">
        <ele>1144.17</ele>
        <time>2022-08-28T13:59:53.000Z</time>
      </trkpt>
      <trkpt lat="44.7132" lon="5.48784">
        <ele>1141.52</ele>
        <time>2022-08-28T14:00:07.190Z</time>
      </trkpt>
      <trkpt lat="44.71303" lon="5.48787">
        <ele>1139.26</ele>
        <time>2022-08-28T14:00:23.327Z</time>
      </trkpt>
      <trkpt lat="44.71284" lon="5.48783">
        <ele>1136.7</ele>
        <time>2022-08-28T14:00:38.556Z</time>
      </trkpt>
      <trkpt lat="44.71266" lon="5.48779">
        <ele>1132.57</ele>
        <time>2022-08-28T14:00:58.635Z</time>
      </trkpt>
      <trkpt lat="44.71248" lon="5.48773">
        <ele>1128.03</ele>
        <time>2022-08-28T14:01:19.374Z</time>
      </trkpt>
      <trkpt lat="44.71234" lon="5.48757">
        <ele>1126.36</ele>
        <time>2022-08-28T14:01:32.033Z</time>
      </trkpt>
      <trkpt lat="44.71217" lon="5.48742">
        <ele>1126.68</ele>
        <time>2022-08-28T14:01:43.685Z</time>
      </trkpt>
      <trkpt lat="44.71201" lon="5.48728">
        <ele>1127.61</ele>
        <time>2022-08-28T14:01:55.377Z</time>
      </trkpt>
      <trkpt lat="44.71186" lon="5.48713">
        <ele>1129.49</ele>
        <time>2022-08-28T14:02:08.696Z</time>
      </trkpt>
      <trkpt lat="44.71176" lon="5.48692">
        <ele>1129.73</ele>
        <time>2022-08-28T14:02:44.000Z</time>
      </trkpt>
      <trkpt lat="44.7116" lon="5.4868">
        <ele>1128.05</ele>
        <time>2022-08-28T14:04:12.553Z</time>
      </trkpt>
      <trkpt lat="44.71142" lon="5.48683">
        <ele>1122.88</ele>
        <time>2022-08-28T14:04:34.471Z</time>
      </trkpt>
      <trkpt lat="44.71129" lon="5.48665">
        <ele>1116.36</ele>
        <time>2022-08-28T14:05:07.713Z</time>
      </trkpt>
      <trkpt lat="44.71113" lon="5.48651">
        <ele>1112.56</ele>
        <time>2022-08-28T14:05:25.833Z</time>
      </trkpt>
      <trkpt lat="44.711" lon="5.48632">
        <ele>1109.74</ele>
        <time>2022-08-28T14:05:42.555Z</time>
      </trkpt>
      <trkpt lat="44.71094" lon="5.48608">
        <ele>1106.23</ele>
        <time>2022-08-28T14:06:00.430Z</time>
      </trkpt>
      <trkpt lat="44.71087" lon="5.48585">
        <ele>1100.79</ele>
        <time>2022-08-28T14:06:26.519Z</time>
      </trkpt>
      <trkpt lat="44.7107" lon="5.48577">
        <ele>1098.59</ele>
        <time>2022-08-28T14:06:51.075Z</time>
      </trkpt>
      <trkpt lat="44.71057" lon="5.48558">
        <ele>1094.17</ele>
        <time>2022-08-28T14:07:10.533Z</time>
      </trkpt>
      <trkpt lat="44.71044" lon="5.4854">
        <ele>1090.25</ele>
        <time>2022-08-28T14:07:28.513Z</time>
      </trkpt>
      <trkpt lat="44.71028" lon="5.48527">
        <ele>1084.93</ele>
        <time>2022-08-28T14:07:52.097Z</time>
      </trkpt>
      <trkpt lat="44.71015" lon="5.48508">
        <ele>1080.87</ele>
        <time>2022-08-28T14:08:12.999Z</time>
      </trkpt>
      <trkpt lat="44.70999" lon="5.48498">
        <ele>1076.72</ele>
        <time>2022-08-28T14:08:31.954Z</time>
      </trkpt>
      <trkpt lat="44.70983" lon="5.48484">
        <ele>1072.76</ele>
        <time>2022-08-28T14:08:49.513Z</time>
      </trkpt>
      <trkpt lat="44.70985" lon="5.4851">
        <ele>1069.71</ele>
        <time>2022-08-28T14:09:09.016Z</time>
      </trkpt>
      <trkpt lat="44.70988" lon="5.48535">
        <ele>1065.05</ele>
        <time>2022-08-28T14:09:33.269Z</time>
      </trkpt>
      <trkpt lat="44.70989" lon="5.48561">
        <ele>1061.67</ele>
        <time>2022-08-28T14:09:51.110Z</time>
      </trkpt>
      <trkpt lat="44.70988" lon="5.48587">
        <ele>1056.19</ele>
        <time>2022-08-28T14:10:12.636Z</time>
      </trkpt>
      <trkpt lat="44.70985" lon="5.48612">
        <ele>1051.74</ele>
        <time>2022-08-28T14:10:31.195Z</time>
      </trkpt>
      <trkpt lat="44.70968" lon="5.4862">
        <ele>1041.49</ele>
        <time>2022-08-28T14:11:11.308Z</time>
      </trkpt>
      <trkpt lat="44.70954" lon="5.48603">
        <ele>1037.64</ele>
        <time>2022-08-28T14:11:30.598Z</time>
      </trkpt>
      <trkpt lat="44.70941" lon="5.48583">
        <ele>1033.8</ele>
        <time>2022-08-28T14:11:45.776Z</time>
      </trkpt>
      <trkpt lat="44.70926" lon="5.48566">
        <ele>1030.99</ele>
        <time>2022-08-28T14:12:04.153Z</time>
      </trkpt>
      <trkpt lat="44.70913" lon="5.48548">
        <ele>1027.72</ele>
        <time>2022-08-28T14:12:18.271Z</time>
      </trkpt>
      <trkpt lat="44.70901" lon="5.48529">
        <ele>1025.03</ele>
        <time>2022-08-28T14:12:36.677Z</time>
      </trkpt>
      <trkpt lat="44.70887" lon="5.48513">
        <ele>1020.37</ele>
        <time>2022-08-28T14:12:53.706Z</time>
      </trkpt>
      <trkpt lat="44.70871" lon="5.48499">
        <ele>1014.28</ele>
        <time>2022-08-28T14:13:14.379Z</time>
      </trkpt>
      <trkpt lat="44.70859" lon="5.4848">
        <ele>1011.41</ele>
        <time>2022-08-28T14:13:31.637Z</time>
      </trkpt>
      <trkpt lat="44.70852" lon="5.48457">
        <ele>1008.02</ele>
        <time>2022-08-28T14:13:47.974Z</time>
      </trkpt>
      <trkpt lat="44.70846" lon="5.48432">
        <ele>1004.12</ele>
        <time>2022-08-28T14:14:22.728Z</time>
      </trkpt>
      <trkpt lat="44.70828" lon="5.48433">
        <ele>997.05</ele>
        <time>2022-08-28T14:14:51.515Z</time>
      </trkpt>
      <trkpt lat="44.70825" lon="5.48459">
        <ele>991.21</ele>
        <time>2022-08-28T14:15:14.999Z</time>
      </trkpt>
      <trkpt lat="44.70829" lon="5.48484">
        <ele>985.58</ele>
        <time>2022-08-28T14:15:35.272Z</time>
      </trkpt>
      <trkpt lat="44.70823" lon="5.48508">
        <ele>980.5</ele>
        <time>2022-08-28T14:15:55.448Z</time>
      </trkpt>
      <trkpt lat="44.70816" lon="5.48531">
        <ele>972.29</ele>
        <time>2022-08-28T14:16:27.576Z</time>
      </trkpt>
      <trkpt lat="44.70826" lon="5.48554">
        <ele>969.03</ele>
        <time>2022-08-28T14:17:30.132Z</time>
      </trkpt>
      <trkpt lat="44.70836" lon="5.48576">
        <ele>967.32</ele>
        <time>2022-08-28T14:17:46.231Z</time>
      </trkpt>
      <trkpt lat="44.70842" lon="5.48601">
        <ele>964.94</ele>
        <time>2022-08-28T14:18:00.999Z</time>
      </trkpt>
      <trkpt lat="44.70853" lon="5.4862">
        <ele>963.54</ele>
        <time>2022-08-28T14:18:14.999Z</time>
      </trkpt>
      <trkpt lat="44.70864" lon="5.48642">
        <ele>962.91</ele>
        <time>2022-08-28T14:18:29.573Z</time>
      </trkpt>
      <trkpt lat="44.70858" lon="5.48666">
        <ele>960.4</ele>
        <time>2022-08-28T14:18:42.592Z</time>
      </trkpt>
      <trkpt lat="44.70849" lon="5.48689">
        <ele>958.47</ele>
        <time>2022-08-28T14:18:58.455Z</time>
      </trkpt>
      <trkpt lat="44.70848" lon="5.48715">
        <ele>958.5</ele>
        <time>2022-08-28T14:19:11.869Z</time>
      </trkpt>
      <trkpt lat="44.70853" lon="5.4874">
        <ele>958.49</ele>
        <time>2022-08-28T14:19:25.999Z</time>
      </trkpt>
      <trkpt lat="44.70848" lon="5.48764">
        <ele>954.9</ele>
        <time>2022-08-28T14:19:46.537Z</time>
      </trkpt>
      <trkpt lat="44.70835" lon="5.48782">
        <ele>951.29</ele>
        <time>2022-08-28T14:20:01.999Z</time>
      </trkpt>
      <trkpt lat="44.70823" lon="5.48802">
        <ele>947.93</ele>
        <time>2022-08-28T14:20:14.032Z</time>
      </trkpt>
      <trkpt lat="44.70805" lon="5.48809">
        <ele>943.71</ele>
        <time>2022-08-28T14:20:38.057Z</time>
      </trkpt>
      <trkpt lat="44.70788" lon="5.48803">
        <ele>938.52</ele>
        <time>2022-08-28T14:21:00.999Z</time>
      </trkpt>
      <trkpt lat="44.70772" lon="5.48791">
        <ele>933.81</ele>
        <time>2022-08-28T14:21:16.474Z</time>
      </trkpt>
      <trkpt lat="44.70767" lon="5.48767">
        <ele>921.41</ele>
        <time>2022-08-28T14:22:07.452Z</time>
      </trkpt>
      <trkpt lat="44.70749" lon="5.48762">
        <ele>917.63</ele>
        <time>2022-08-28T14:22:23.437Z</time>
      </trkpt>
      <trkpt lat="44.70731" lon="5.48758">
        <ele>912.55</ele>
        <time>2022-08-28T14:22:55.294Z</time>
      </trkpt>
      <trkpt lat="44.70714" lon="5.48749">
        <ele>903.52</ele>
        <time>2022-08-28T14:23:20.684Z</time>
      </trkpt>
      <trkpt lat="44.70697" lon="5.48739">
        <ele>899.47</ele>
        <time>2022-08-28T14:23:38.701Z</time>
      </trkpt>
      <trkpt lat="44.70678" lon="5.48737">
        <ele>897.95</ele>
        <time>2022-08-28T14:23:51.957Z</time>
      </trkpt>
      <trkpt lat="44.7066" lon="5.48738">
        <ele>896.05</ele>
        <time>2022-08-28T14:24:06.014Z</time>
      </trkpt>
      <trkpt lat="44.70641" lon="5.48738">
        <ele>894.57</ele>
        <time>2022-08-28T14:24:18.364Z</time>
      </trkpt>
      <trkpt lat="44.70623" lon="5.48743">
        <ele>892.88</ele>
        <time>2022-08-28T14:24:35.410Z</time>
      </trkpt>
      <trkpt lat="44.70604" lon="5.48741">
        <ele>884.91</ele>
        <time>2022-08-28T14:25:09.817Z</time>
      </trkpt>
      <trkpt lat="44.70592" lon="5.48723">
        <ele>879.61</ele>
        <time>2022-08-28T14:25:32.356Z</time>
      </trkpt>
      <trkpt lat="44.70576" lon="5.48707">
        <ele>872.09</ele>
        <time>2022-08-28T14:25:55.374Z</time>
      </trkpt>
      <trkpt lat="44.70562" lon="5.4869">
        <ele>868.26</ele>
        <time>2022-08-28T14:26:10.074Z</time>
      </trkpt>
      <trkpt lat="44.70546" lon="5.48678">
        <ele>864</ele>
        <time>2022-08-28T14:26:27.131Z</time>
      </trkpt>
      <trkpt lat="44.70529" lon="5.48666">
        <ele>861.4</ele>
        <time>2022-08-28T14:26:43.132Z</time>
      </trkpt>
      <trkpt lat="44.70513" lon="5.48653">
        <ele>859.99</ele>
        <time>2022-08-28T14:26:59.057Z</time>
      </trkpt>
      <trkpt lat="44.70494" lon="5.48651">
        <ele>854.92</ele>
        <time>2022-08-28T14:27:18.576Z</time>
      </trkpt>
      <trkpt lat="44.70476" lon="5.48643">
        <ele>850.21</ele>
        <time>2022-08-28T14:27:35.357Z</time>
      </trkpt>
      <trkpt lat="44.70462" lon="5.48626">
        <ele>845.9</ele>
        <time>2022-08-28T14:27:53.771Z</time>
      </trkpt>
      <trkpt lat="44.70449" lon="5.48606">
        <ele>841.34</ele>
        <time>2022-08-28T14:28:10.556Z</time>
      </trkpt>
      <trkpt lat="44.70436" lon="5.48588">
        <ele>837.68</ele>
        <time>2022-08-28T14:28:24.757Z</time>
      </trkpt>
      <trkpt lat="44.70424" lon="5.48568">
        <ele>832.42</ele>
        <time>2022-08-28T14:28:43.597Z</time>
      </trkpt>
      <trkpt lat="44.70414" lon="5.48546">
        <ele>827.51</ele>
        <time>2022-08-28T14:29:01.575Z</time>
      </trkpt>
      <trkpt lat="44.704" lon="5.48529">
        <ele>821.91</ele>
        <time>2022-08-28T14:30:03.688Z</time>
      </trkpt>
      <trkpt lat="44.70382" lon="5.48522">
        <ele>816.5</ele>
        <time>2022-08-28T14:30:25.000Z</time>
      </trkpt>
      <trkpt lat="44.70372" lon="5.48501">
        <ele>809.69</ele>
        <time>2022-08-28T14:30:42.351Z</time>
      </trkpt>
      <trkpt lat="44.70358" lon="5.48483">
        <ele>805.55</ele>
        <time>2022-08-28T14:30:59.368Z</time>
      </trkpt>
      <trkpt lat="44.70347" lon="5.48463">
        <ele>798.05</ele>
        <time>2022-08-28T14:31:23.721Z</time>
      </trkpt>
      <trkpt lat="44.70336" lon="5.4844">
        <ele>793.46</ele>
        <time>2022-08-28T14:31:39.693Z</time>
      </trkpt>
      <trkpt lat="44.70325" lon="5.48421">
        <ele>789.67</ele>
        <time>2022-08-28T14:31:56.309Z</time>
      </trkpt>
      <trkpt lat="44.70306" lon="5.48421">
        <ele>783.32</ele>
        <time>2022-08-28T14:32:25.312Z</time>
      </trkpt>
      <trkpt lat="44.70288" lon="5.48429">
        <ele>780.92</ele>
        <time>2022-08-28T14:32:39.550Z</time>
      </trkpt>
      <trkpt lat="44.70271" lon="5.4844">
        <ele>779.09</ele>
        <time>2022-08-28T14:32:55.000Z</time>
      </trkpt>
      <trkpt lat="44.70253" lon="5.48447">
        <ele>776.53</ele>
        <time>2022-08-28T14:33:10.474Z</time>
      </trkpt>
      <trkpt lat="44.70238" lon="5.48462">
        <ele>774.59</ele>
        <time>2022-08-28T14:33:25.875Z</time>
      </trkpt>
      <trkpt lat="44.70219" lon="5.48463">
        <ele>772.36</ele>
        <time>2022-08-28T14:33:38.596Z</time>
      </trkpt>
      <trkpt lat="44.702" lon="5.4847">
        <ele>770.28</ele>
        <time>2022-08-28T14:33:51.612Z</time>
      </trkpt>
      <trkpt lat="44.70182" lon="5.48466">
        <ele>768.49</ele>
        <time>2022-08-28T14:34:05.391Z</time>
      </trkpt>
      <trkpt lat="44.70164" lon="5.48465">
        <ele>765.49</ele>
        <time>2022-08-28T14:34:20.152Z</time>
      </trkpt>
      <trkpt lat="44.70146" lon="5.48463">
        <ele>763.51</ele>
        <time>2022-08-28T14:34:35.440Z</time>
      </trkpt>
      <trkpt lat="44.70128" lon="5.4847">
        <ele>761.11</ele>
        <time>2022-08-28T14:34:53.497Z</time>
      </trkpt>
      <trkpt lat="44.70117" lon="5.48491">
        <ele>758.55</ele>
        <time>2022-08-28T14:35:10.455Z</time>
      </trkpt>
      <trkpt lat="44.70121" lon="5.48466">
        <ele>753.23</ele>
        <time>2022-08-28T14:35:38.233Z</time>
      </trkpt>
      <trkpt lat="44.70132" lon="5.48445">
        <ele>751.03</ele>
        <time>2022-08-28T14:35:55.077Z</time>
      </trkpt>
      <trkpt lat="44.70131" lon="5.48419">
        <ele>740.74</ele>
        <time>2022-08-28T14:36:33.974Z</time>
      </trkpt>
      <trkpt lat="44.7012" lon="5.48399">
        <ele>735.08</ele>
        <time>2022-08-28T14:37:00.073Z</time>
      </trkpt>
      <trkpt lat="44.70105" lon="5.48382">
        <ele>731.15</ele>
        <time>2022-08-28T14:37:15.889Z</time>
      </trkpt>
      <trkpt lat="44.70088" lon="5.48373">
        <ele>729.38</ele>
        <time>2022-08-28T14:37:34.000Z</time>
      </trkpt>
      <trkpt lat="44.70075" lon="5.48355">
        <ele>727.62</ele>
        <time>2022-08-28T14:37:51.292Z</time>
      </trkpt>
      <trkpt lat="44.70065" lon="5.48333">
        <ele>726.88</ele>
        <time>2022-08-28T14:38:12.237Z</time>
      </trkpt>
      <trkpt lat="44.70049" lon="5.48321">
        <ele>724.01</ele>
        <time>2022-08-28T14:38:32.000Z</time>
      </trkpt>
      <trkpt lat="44.70012" lon="5.4831">
        <ele>719.92</ele>
        <time>2022-08-28T14:38:55.890Z</time>
      </trkpt>
      <trkpt lat="44.69994" lon="5.48316">
        <ele>718.24</ele>
        <time>2022-08-28T14:39:11.347Z</time>
      </trkpt>
      <trkpt lat="44.69976" lon="5.48322">
        <ele>715.7</ele>
        <time>2022-08-28T14:39:29.275Z</time>
      </trkpt>
      <trkpt lat="44.69965" lon="5.48342">
        <ele>706.8</ele>
        <time>2022-08-28T14:40:02.150Z</time>
      </trkpt>
      <trkpt lat="44.69947" lon="5.4835">
        <ele>704.09</ele>
        <time>2022-08-28T14:40:18.047Z</time>
      </trkpt>
      <trkpt lat="44.69929" lon="5.4835">
        <ele>702.39</ele>
        <time>2022-08-28T14:40:34.937Z</time>
      </trkpt>
      <trkpt lat="44.69911" lon="5.48344">
        <ele>699.67</ele>
        <time>2022-08-28T14:40:50.597Z</time>
      </trkpt>
      <trkpt lat="44.69923" lon="5.48388">
        <ele>687.93</ele>
        <time>2022-08-28T14:41:45.136Z</time>
      </trkpt>
      <trkpt lat="44.69937" lon="5.48405">
        <ele>686.17</ele>
        <time>2022-08-28T14:42:01.999Z</time>
      </trkpt>
      <trkpt lat="44.6995" lon="5.48423">
        <ele>683.26</ele>
        <time>2022-08-28T14:42:15.134Z</time>
      </trkpt>
      <trkpt lat="44.69937" lon="5.48441">
        <ele>681.93</ele>
        <time>2022-08-28T14:42:40.396Z</time>
      </trkpt>
      <trkpt lat="44.69918" lon="5.48445">
        <ele>680.1</ele>
        <time>2022-08-28T14:42:55.474Z</time>
      </trkpt>
      <trkpt lat="44.69901" lon="5.48451">
        <ele>677.32</ele>
        <time>2022-08-28T14:43:11.313Z</time>
      </trkpt>
      <trkpt lat="44.69883" lon="5.48461">
        <ele>675.79</ele>
        <time>2022-08-28T14:43:28.550Z</time>
      </trkpt>
      <trkpt lat="44.69865" lon="5.48464">
        <ele>673.3</ele>
        <time>2022-08-28T14:43:43.347Z</time>
      </trkpt>
      <trkpt lat="44.69847" lon="5.48469">
        <ele>671</ele>
        <time>2022-08-28T14:44:01.559Z</time>
      </trkpt>
      <trkpt lat="44.69832" lon="5.48456">
        <ele>662.06</ele>
        <time>2022-08-28T14:44:35.616Z</time>
      </trkpt>
      <trkpt lat="44.69815" lon="5.48446">
        <ele>655.37</ele>
        <time>2022-08-28T14:45:16.999Z</time>
      </trkpt>
      <trkpt lat="44.69802" lon="5.48466">
        <ele>651.37</ele>
        <time>2022-08-28T14:45:48.353Z</time>
      </trkpt>
      <trkpt lat="44.69791" lon="5.48487">
        <ele>642.97</ele>
        <time>2022-08-28T14:46:10.954Z</time>
      </trkpt>
      <trkpt lat="44.69774" lon="5.48496">
        <ele>633.58</ele>
        <time>2022-08-28T14:46:43.999Z</time>
      </trkpt>
      <trkpt lat="44.69765" lon="5.48473">
        <ele>629.56</ele>
        <time>2022-08-28T14:47:06.175Z</time>
      </trkpt>
      <trkpt lat="44.69747" lon="5.48471">
        <ele>620.36</ele>
        <time>2022-08-28T14:47:44.713Z</time>
      </trkpt>
      <trkpt lat="44.69732" lon="5.48456">
        <ele>615</ele>
        <time>2022-08-28T14:48:07.513Z</time>
      </trkpt>
      <trkpt lat="44.69718" lon="5.48439">
        <ele>612.63</ele>
        <time>2022-08-28T14:48:22.370Z</time>
      </trkpt>
      <trkpt lat="44.69703" lon="5.48424">
        <ele>609.86</ele>
        <time>2022-08-28T14:48:38.436Z</time>
      </trkpt>
      <trkpt lat="44.69684" lon="5.48424">
        <ele>609.03</ele>
        <time>2022-08-28T14:48:55.354Z</time>
      </trkpt>
      <trkpt lat="44.69666" lon="5.48426">
        <ele>606.94</ele>
        <time>2022-08-28T14:49:13.689Z</time>
      </trkpt>
      <trkpt lat="44.69648" lon="5.48421">
        <ele>606.41</ele>
        <time>2022-08-28T14:49:31.528Z</time>
      </trkpt>
      <trkpt lat="44.6963" lon="5.48429">
        <ele>603.26</ele>
        <time>2022-08-28T14:49:55.101Z</time>
      </trkpt>
      <trkpt lat="44.69624" lon="5.48454">
        <ele>600.29</ele>
        <time>2022-08-28T14:50:12.462Z</time>
      </trkpt>
      <trkpt lat="44.69608" lon="5.48468">
        <ele>597.97</ele>
        <time>2022-08-28T14:50:30.517Z</time>
      </trkpt>
      <trkpt lat="44.69594" lon="5.48483">
        <ele>595.78</ele>
        <time>2022-08-28T14:50:46.135Z</time>
      </trkpt>
      <trkpt lat="44.69577" lon="5.48495">
        <ele>593.98</ele>
        <time>2022-08-28T14:51:10.999Z</time>
      </trkpt>
      <trkpt lat="44.69559" lon="5.48503">
        <ele>591.4</ele>
        <time>2022-08-28T14:51:26.486Z</time>
      </trkpt>
      <trkpt lat="44.69542" lon="5.48509">
        <ele>589.52</ele>
        <time>2022-08-28T14:51:43.475Z</time>
      </trkpt>
      <trkpt lat="44.69524" lon="5.48506">
        <ele>587.36</ele>
        <time>2022-08-28T14:52:02.436Z</time>
      </trkpt>
      <trkpt lat="44.69509" lon="5.48523">
        <ele>586.67</ele>
        <time>2022-08-28T14:53:10.999Z</time>
      </trkpt>
      <trkpt lat="44.69493" lon="5.4851">
        <ele>581.38</ele>
        <time>2022-08-28T14:54:55.172Z</time>
      </trkpt>
      <trkpt lat="44.69475" lon="5.4851">
        <ele>581.28</ele>
        <time>2022-08-28T14:55:10.069Z</time>
      </trkpt>
      <trkpt lat="44.69457" lon="5.48516">
        <ele>575.96</ele>
        <time>2022-08-28T14:55:26.529Z</time>
      </trkpt>
      <trkpt lat="44.69439" lon="5.48518">
        <ele>574.68</ele>
        <time>2022-08-28T14:55:43.546Z</time>
      </trkpt>
      <trkpt lat="44.69423" lon="5.4853">
        <ele>571.58</ele>
        <time>2022-08-28T14:56:20.097Z</time>
      </trkpt>
    </trkseg>
  </trk>
</gpx>